UAL8303 SBGR-PANC
Flight info
| Callsign | UAL8303 |
|---|---|
| Flight time | N/A |
| Altitude | 32000 |
| Route | GERTU UL304 VUDIR UM417 PUDKA UL304 KONKI UM417 BRUTI UL304 POVLA/N0504F340 UL304 BODLO A756 KNSLY Y298 RUMFO/N0495F360 Y298 VENDS Y185 MANLE Q89 SHRKS Q77 TEUFL/N0491F370 Q77 MELKR/N0489F360 DCT IRQ J99 IIU J89 CADIZ/N0494F380 J89 OBK J101 BAE J89 DLH Q834 OTLUR Q906 KENRU Q919 YVC Q963 YMM/N0487F400 J513 YYE J515 YXY Q811 GKN PTERS3 |
| Aircraft | B772/H-SDE2E3FGHIJ5LORVWXY/LB1D1 |
Departure
| Time | 2026-05-07 03:46 |
|---|---|
| Airport | São Paulo/Guarulhos–Governor André Franco Montoro International Airport (SBGR) |
Arrival
| Time | N/A |
|---|---|
| Airport | Ted Stevens Anchorage International Airport (PANC) |
| Time | Latitude | Longitude | Altitude | Speed | Heading |
|---|---|---|---|---|---|
| 2026-05-07 03:30 | -23.42860 | -46.48825 | 2450 ft | 0 kts | 275° |
| 2026-05-07 03:37 | -23.42861 | -46.48822 | 2449 ft | 2 kts | 275° |
| 2026-05-07 03:37 | -23.42862 | -46.48806 | 2449 ft | 2 kts | 275° |
| 2026-05-07 03:37 | -23.42863 | -46.48790 | 2450 ft | 2 kts | 275° |
| 2026-05-07 03:38 | -23.42865 | -46.48779 | 2450 ft | 0 kts | 275° |
| 2026-05-07 03:38 | -23.42864 | -46.48764 | 2450 ft | 2 kts | 245° |
| 2026-05-07 03:38 | -23.42855 | -46.48751 | 2451 ft | 2 kts | 209° |
| 2026-05-07 03:38 | -23.42845 | -46.48747 | 2451 ft | 0 kts | 185° |
| 2026-05-07 03:39 | -23.42841 | -46.48747 | 2451 ft | 0 kts | 185° |
| 2026-05-07 03:42 | -23.42851 | -46.48748 | 2451 ft | 6 kts | 185° |
| 2026-05-07 03:42 | -23.42940 | -46.48757 | 2449 ft | 19 kts | 185° |
| 2026-05-07 03:43 | -23.43071 | -46.48774 | 2447 ft | 20 kts | 186° |
| 2026-05-07 03:43 | -23.43164 | -46.48701 | 2449 ft | 19 kts | 101° |
| 2026-05-07 03:43 | -23.43183 | -46.48549 | 2450 ft | 21 kts | 97° |
| 2026-05-07 03:43 | -23.43212 | -46.48412 | 2452 ft | 14 kts | 136° |
| 2026-05-07 03:44 | -23.43242 | -46.48389 | 2453 ft | 1 kts | 150° |
| 2026-05-07 03:44 | -23.43262 | -46.48379 | 2453 ft | 4 kts | 160° |
| 2026-05-07 03:44 | -23.43316 | -46.48359 | 2455 ft | 11 kts | 162° |
| 2026-05-07 03:44 | -23.43401 | -46.48332 | 2457 ft | 7 kts | 137° |
| 2026-05-07 03:45 | -23.43409 | -46.48302 | 2458 ft | 3 kts | 95° |
| 2026-05-07 03:45 | -23.43409 | -46.48279 | 2458 ft | 2 kts | 82° |
| 2026-05-07 03:45 | -23.43402 | -46.48245 | 2458 ft | 19 kts | 76° |
| 2026-05-07 03:45 | -23.43304 | -46.47874 | 2458 ft | 81 kts | 73° |
| 2026-05-07 03:46 | -23.43090 | -46.47089 | 2457 ft | 135 kts | 73° |
| 2026-05-07 03:46 | -23.42794 | -46.45923 | 2464 ft | 180 kts | 75° |
| 2026-05-07 03:46 | -23.42436 | -46.44533 | 2798 ft | 192 kts | 75° |
| 2026-05-07 03:46 | -23.42059 | -46.43164 | 3477 ft | 191 kts | 63° |
| 2026-05-07 03:47 | -23.41247 | -46.42068 | 4038 ft | 187 kts | 37° |
| 2026-05-07 03:47 | -23.40061 | -46.41319 | 4115 ft | 207 kts | 28° |
| 2026-05-07 03:47 | -23.38759 | -46.40604 | 4529 ft | 215 kts | 27° |
| 2026-05-07 03:47 | -23.37414 | -46.39780 | 4867 ft | 230 kts | 39° |
| 2026-05-07 03:48 | -23.36223 | -46.38549 | 5419 ft | 236 kts | 46° |
| 2026-05-07 03:48 | -23.35084 | -46.37266 | 6057 ft | 239 kts | 46° |
| 2026-05-07 03:48 | -23.33900 | -46.35939 | 6410 ft | 254 kts | 45° |
| 2026-05-07 03:48 | -23.32638 | -46.34536 | 6886 ft | 263 kts | 45° |
| 2026-05-07 03:49 | -23.31345 | -46.33099 | 7535 ft | 265 kts | 45° |
| 2026-05-07 03:49 | -23.30056 | -46.31668 | 8162 ft | 268 kts | 45° |
| 2026-05-07 03:49 | -23.28737 | -46.30204 | 8752 ft | 271 kts | 45° |
| 2026-05-07 03:49 | -23.27398 | -46.28719 | 9239 ft | 278 kts | 45° |
| 2026-05-07 03:50 | -23.26042 | -46.27214 | 9793 ft | 282 kts | 45° |
| 2026-05-07 03:50 | -23.24658 | -46.25680 | 10394 ft | 285 kts | 46° |
| 2026-05-07 03:50 | -23.23245 | -46.24113 | 10694 ft | 300 kts | 46° |
| 2026-05-07 03:50 | -23.21740 | -46.22445 | 10961 ft | 316 kts | 46° |
| 2026-05-07 03:51 | -23.20176 | -46.20712 | 11227 ft | 332 kts | 46° |
| 2026-05-07 03:51 | -23.18506 | -46.18864 | 11531 ft | 347 kts | 45° |
| 2026-05-07 03:51 | -23.16622 | -46.17131 | 11812 ft | 362 kts | 35° |
| 2026-05-07 03:51 | -23.14366 | -46.15788 | 12155 ft | 376 kts | 23° |
| 2026-05-07 03:52 | -23.11850 | -46.14965 | 12663 ft | 384 kts | 12° |
| 2026-05-07 03:52 | -23.09139 | -46.14693 | 13216 ft | 391 kts | 1° |
| 2026-05-07 03:52 | -23.06429 | -46.14994 | 13755 ft | 398 kts | 349° |
| 2026-05-07 03:52 | -23.03758 | -46.15884 | 14293 ft | 404 kts | 338° |
| 2026-05-07 03:53 | -23.01264 | -46.17357 | 14826 ft | 410 kts | 326° |
| 2026-05-07 03:53 | -22.99085 | -46.19356 | 15363 ft | 414 kts | 314° |
| 2026-05-07 03:53 | -22.97126 | -46.21684 | 15959 ft | 416 kts | 312° |
| 2026-05-07 03:53 | -22.95180 | -46.23969 | 16504 ft | 419 kts | 313° |
| 2026-05-07 03:54 | -22.93150 | -46.26279 | 16990 ft | 423 kts | 314° |
| 2026-05-07 03:54 | -22.91111 | -46.28621 | 17513 ft | 426 kts | 309° |
| 2026-05-07 03:54 | -22.89399 | -46.31246 | 17992 ft | 429 kts | 299° |
| 2026-05-07 03:54 | -22.88055 | -46.34105 | 18494 ft | 431 kts | 294° |
| 2026-05-07 03:55 | -22.86767 | -46.37038 | 19016 ft | 432 kts | 294° |
| 2026-05-07 03:55 | -22.85468 | -46.39991 | 19496 ft | 435 kts | 294° |
| 2026-05-07 03:55 | -22.84167 | -46.42939 | 19953 ft | 437 kts | 294° |
| 2026-05-07 03:55 | -22.82850 | -46.45911 | 20408 ft | 439 kts | 294° |
| 2026-05-07 03:56 | -22.81524 | -46.48898 | 20851 ft | 442 kts | 294° |
| 2026-05-07 03:56 | -22.80185 | -46.51905 | 21297 ft | 444 kts | 294° |
| 2026-05-07 03:56 | -22.78840 | -46.54924 | 21745 ft | 445 kts | 293° |
| 2026-05-07 03:56 | -22.77500 | -46.57927 | 22166 ft | 447 kts | 293° |
| 2026-05-07 03:57 | -22.76143 | -46.60964 | 22588 ft | 449 kts | 293° |
| 2026-05-07 03:57 | -22.74777 | -46.64018 | 22953 ft | 452 kts | 293° |
| 2026-05-07 03:57 | -22.73401 | -46.67093 | 23327 ft | 454 kts | 293° |
| 2026-05-07 03:57 | -22.72011 | -46.70196 | 23696 ft | 457 kts | 293° |
| 2026-05-07 03:58 | -22.70634 | -46.73270 | 24080 ft | 458 kts | 293° |
| 2026-05-07 03:58 | -22.69240 | -46.76378 | 24425 ft | 461 kts | 293° |
| 2026-05-07 03:58 | -22.67844 | -46.79489 | 24761 ft | 463 kts | 293° |
| 2026-05-07 03:58 | -22.66426 | -46.82644 | 25095 ft | 466 kts | 292° |
| 2026-05-07 03:59 | -22.65005 | -46.85795 | 25463 ft | 467 kts | 292° |
| 2026-05-07 03:59 | -22.63573 | -46.88966 | 25821 ft | 468 kts | 292° |
| 2026-05-07 03:59 | -22.62136 | -46.92147 | 26132 ft | 470 kts | 292° |
| 2026-05-07 03:59 | -22.60715 | -46.95296 | 26393 ft | 473 kts | 292° |
| 2026-05-07 04:00 | -22.59258 | -46.98529 | 26695 ft | 475 kts | 292° |
| 2026-05-07 04:00 | -22.57823 | -47.01713 | 27016 ft | 476 kts | 291° |
| 2026-05-07 04:00 | -22.56354 | -47.04969 | 27323 ft | 478 kts | 291° |
| 2026-05-07 04:00 | -22.55061 | -47.08234 | 27563 ft | 476 kts | 284° |
| 2026-05-07 04:01 | -22.54136 | -47.11644 | 27774 ft | 476 kts | 281° |
| 2026-05-07 04:01 | -22.53268 | -47.15142 | 28056 ft | 478 kts | 280° |
| 2026-05-07 04:01 | -22.52416 | -47.18585 | 28365 ft | 478 kts | 280° |
| 2026-05-07 04:01 | -22.51559 | -47.22041 | 28646 ft | 479 kts | 280° |
| 2026-05-07 04:02 | -22.50698 | -47.25511 | 28875 ft | 481 kts | 280° |
| 2026-05-07 04:02 | -22.49831 | -47.28998 | 29072 ft | 483 kts | 280° |
| 2026-05-07 04:02 | -22.48957 | -47.32511 | 29299 ft | 484 kts | 280° |
| 2026-05-07 04:02 | -22.48077 | -47.36039 | 29553 ft | 485 kts | 280° |
| 2026-05-07 04:03 | -22.47203 | -47.39539 | 29852 ft | 484 kts | 280° |
| 2026-05-07 04:03 | -22.46322 | -47.43057 | 30248 ft | 481 kts | 279° |
| 2026-05-07 04:03 | -22.45451 | -47.46536 | 30620 ft | 479 kts | 279° |
| 2026-05-07 04:03 | -22.44493 | -47.49950 | 30917 ft | 481 kts | 285° |
| 2026-05-07 04:04 | -22.43073 | -47.53254 | 31162 ft | 487 kts | 294° |
| 2026-05-07 04:04 | -22.41190 | -47.56314 | 31338 ft | 495 kts | 303° |
| 2026-05-07 04:04 | -22.38864 | -47.59061 | 31500 ft | 503 kts | 312° |
| 2026-05-07 04:04 | -22.36100 | -47.61459 | 31693 ft | 509 kts | 319° |
| 2026-05-07 04:05 | -22.33201 | -47.63644 | 31971 ft | 508 kts | 320° |
| 2026-05-07 04:05 | -22.30297 | -47.65806 | 32150 ft | 508 kts | 320° |
| 2026-05-07 04:05 | -22.27367 | -47.67988 | 32163 ft | 510 kts | 320° |
| 2026-05-07 04:06 | -22.21402 | -47.72433 | 32181 ft | 515 kts | 320° |
| 2026-05-07 04:06 | -22.15475 | -47.76850 | 32188 ft | 520 kts | 320° |
| 2026-05-07 04:07 | -22.09461 | -47.81330 | 32193 ft | 525 kts | 320° |
| 2026-05-07 04:07 | -22.03435 | -47.85815 | 32188 ft | 529 kts | 321° |
| 2026-05-07 04:08 | -21.97365 | -47.90329 | 32185 ft | 532 kts | 321° |
| 2026-05-07 04:08 | -21.91250 | -47.94871 | 32177 ft | 530 kts | 321° |
| 2026-05-07 04:09 | -21.85138 | -47.99408 | 32159 ft | 532 kts | 321° |
| 2026-05-07 04:09 | -21.79073 | -48.03904 | 32150 ft | 530 kts | 321° |
| 2026-05-07 04:10 | -21.73025 | -48.08499 | 32148 ft | 532 kts | 320° |
| 2026-05-07 04:10 | -21.66994 | -48.13110 | 32148 ft | 530 kts | 320° |
| 2026-05-07 04:11 | -21.60982 | -48.17699 | 32144 ft | 530 kts | 320° |
| 2026-05-07 04:11 | -21.54937 | -48.22305 | 32143 ft | 531 kts | 320° |
| 2026-05-07 04:12 | -21.48889 | -48.26907 | 32139 ft | 530 kts | 320° |
| 2026-05-07 04:12 | -21.42886 | -48.31469 | 32137 ft | 531 kts | 320° |
| 2026-05-07 04:13 | -21.36844 | -48.36056 | 32133 ft | 530 kts | 320° |
| 2026-05-07 04:13 | -21.30837 | -48.40611 | 32134 ft | 531 kts | 320° |
| 2026-05-07 04:14 | -21.24763 | -48.45212 | 32138 ft | 532 kts | 320° |
| 2026-05-07 04:14 | -21.18723 | -48.49782 | 32137 ft | 531 kts | 320° |
| 2026-05-07 04:15 | -21.12701 | -48.54335 | 32134 ft | 531 kts | 320° |
| 2026-05-07 04:15 | -21.06642 | -48.58910 | 32133 ft | 532 kts | 320° |
| 2026-05-07 04:16 | -21.00568 | -48.63492 | 32126 ft | 531 kts | 320° |
| 2026-05-07 04:16 | -20.94547 | -48.68029 | 32122 ft | 531 kts | 321° |
| 2026-05-07 04:17 | -20.88453 | -48.72618 | 32106 ft | 532 kts | 321° |
| 2026-05-07 04:17 | -20.82418 | -48.77157 | 32103 ft | 531 kts | 321° |
| 2026-05-07 04:18 | -20.76370 | -48.81701 | 32102 ft | 531 kts | 321° |
| 2026-05-07 04:18 | -20.70327 | -48.86237 | 32100 ft | 530 kts | 321° |
| 2026-05-07 04:19 | -20.64277 | -48.90772 | 32099 ft | 531 kts | 321° |
| 2026-05-07 04:19 | -20.58208 | -48.95318 | 32097 ft | 530 kts | 321° |
| 2026-05-07 04:20 | -20.52161 | -48.99842 | 32096 ft | 531 kts | 321° |
| 2026-05-07 04:20 | -20.46121 | -49.04358 | 32096 ft | 532 kts | 321° |
| 2026-05-07 04:21 | -20.36988 | -49.11176 | 32096 ft | 531 kts | 321° |
| 2026-05-07 04:21 | -20.30930 | -49.15693 | 32097 ft | 531 kts | 321° |
| 2026-05-07 04:22 | -20.24897 | -49.20188 | 32096 ft | 531 kts | 321° |
| 2026-05-07 04:22 | -20.18838 | -49.24697 | 32094 ft | 531 kts | 321° |
| 2026-05-07 04:23 | -20.12767 | -49.29212 | 32096 ft | 533 kts | 321° |
| 2026-05-07 04:23 | -20.06654 | -49.33752 | 32094 ft | 531 kts | 321° |
| 2026-05-07 04:24 | -20.00598 | -49.38246 | 32091 ft | 531 kts | 321° |
| 2026-05-07 04:24 | -19.94509 | -49.42760 | 32098 ft | 531 kts | 321° |
| 2026-05-07 04:25 | -19.88442 | -49.47253 | 32084 ft | 531 kts | 321° |
| 2026-05-07 04:25 | -19.82377 | -49.51742 | 32081 ft | 532 kts | 321° |
| 2026-05-07 04:26 | -19.76285 | -49.56245 | 32079 ft | 532 kts | 321° |
| 2026-05-07 04:26 | -19.70213 | -49.60729 | 32074 ft | 532 kts | 321° |
| 2026-05-07 04:27 | -19.64117 | -49.65228 | 32077 ft | 533 kts | 322° |
| 2026-05-07 04:27 | -19.58011 | -49.69729 | 32074 ft | 532 kts | 321° |
| 2026-05-07 04:28 | -19.51967 | -49.74180 | 32082 ft | 531 kts | 321° |
| 2026-05-07 04:28 | -19.45874 | -49.78663 | 32080 ft | 532 kts | 322° |
| 2026-05-07 04:29 | -19.39801 | -49.83127 | 32076 ft | 532 kts | 322° |
| 2026-05-07 04:29 | -19.33687 | -49.87618 | 32082 ft | 533 kts | 321° |
| 2026-05-07 04:30 | -19.27598 | -49.92085 | 32082 ft | 531 kts | 321° |
| 2026-05-07 04:30 | -19.21517 | -49.96543 | 32083 ft | 532 kts | 322° |
| 2026-05-07 04:31 | -19.15422 | -50.01008 | 32078 ft | 531 kts | 322° |
| 2026-05-07 04:31 | -19.09324 | -50.05470 | 32076 ft | 533 kts | 322° |
| 2026-05-07 04:32 | -19.03239 | -50.09919 | 32072 ft | 531 kts | 322° |
| 2026-05-07 04:32 | -18.97175 | -50.14348 | 32069 ft | 532 kts | 322° |
| 2026-05-07 04:33 | -18.91045 | -50.18822 | 32071 ft | 531 kts | 322° |
| 2026-05-07 04:33 | -18.84941 | -50.23272 | 32060 ft | 531 kts | 322° |
| 2026-05-07 04:34 | -18.78871 | -50.27694 | 32057 ft | 531 kts | 322° |
| 2026-05-07 04:34 | -18.72782 | -50.32126 | 32059 ft | 531 kts | 322° |
| 2026-05-07 04:35 | -18.66698 | -50.36550 | 32066 ft | 531 kts | 322° |
| 2026-05-07 04:35 | -18.60611 | -50.40972 | 32066 ft | 529 kts | 322° |
| 2026-05-07 04:36 | -18.54541 | -50.45379 | 32068 ft | 530 kts | 322° |
| 2026-05-07 04:36 | -18.48463 | -50.49786 | 32073 ft | 530 kts | 322° |
| 2026-05-07 04:37 | -18.42374 | -50.54196 | 32081 ft | 528 kts | 322° |
| 2026-05-07 04:37 | -18.36316 | -50.58578 | 32090 ft | 529 kts | 322° |
| 2026-05-07 04:38 | -18.30247 | -50.62965 | 32109 ft | 529 kts | 322° |
| 2026-05-07 04:38 | -18.24143 | -50.67372 | 32123 ft | 528 kts | 322° |
| 2026-05-07 04:39 | -18.18067 | -50.71757 | 32136 ft | 529 kts | 322° |
| 2026-05-07 04:39 | -18.12008 | -50.76125 | 32132 ft | 529 kts | 322° |
| 2026-05-07 04:40 | -18.05921 | -50.80509 | 32126 ft | 528 kts | 322° |
| 2026-05-07 04:40 | -17.99855 | -50.84874 | 32128 ft | 528 kts | 322° |
| 2026-05-07 04:41 | -17.93805 | -50.89225 | 32131 ft | 528 kts | 323° |
| 2026-05-07 04:41 | -17.87692 | -50.93617 | 32126 ft | 527 kts | 322° |
| 2026-05-07 04:42 | -17.81616 | -50.97978 | 32132 ft | 528 kts | 322° |
| 2026-05-07 04:42 | -17.75584 | -51.02303 | 32133 ft | 528 kts | 322° |
| 2026-05-07 04:43 | -17.69511 | -51.06654 | 32135 ft | 528 kts | 322° |
| 2026-05-07 04:43 | -17.63458 | -51.10987 | 32132 ft | 528 kts | 322° |
| 2026-05-07 04:44 | -17.57382 | -51.15332 | 32133 ft | 527 kts | 322° |
| 2026-05-07 04:44 | -17.51307 | -51.19674 | 32129 ft | 527 kts | 323° |
| 2026-05-07 04:45 | -17.45239 | -51.24007 | 32128 ft | 528 kts | 323° |
| 2026-05-07 04:45 | -17.39190 | -51.28323 | 32129 ft | 527 kts | 323° |
| 2026-05-07 04:46 | -17.33122 | -51.32653 | 32129 ft | 527 kts | 322° |
| 2026-05-07 04:46 | -17.27057 | -51.36981 | 32130 ft | 527 kts | 322° |
| 2026-05-07 04:47 | -17.20973 | -51.41319 | 32131 ft | 528 kts | 323° |
| 2026-05-07 04:47 | -17.14915 | -51.45634 | 32122 ft | 528 kts | 322° |
| 2026-05-07 04:48 | -17.08799 | -51.49988 | 32115 ft | 527 kts | 323° |
| 2026-05-07 04:48 | -17.02718 | -51.54314 | 32111 ft | 527 kts | 323° |
| 2026-05-07 04:49 | -16.96651 | -51.58625 | 32107 ft | 528 kts | 323° |
| 2026-05-07 04:49 | -16.90593 | -51.62927 | 32110 ft | 526 kts | 323° |
| 2026-05-07 04:50 | -16.84482 | -51.67263 | 32097 ft | 527 kts | 323° |
| 2026-05-07 04:50 | -16.78407 | -51.71568 | 32096 ft | 527 kts | 323° |
| 2026-05-07 04:51 | -16.72336 | -51.75865 | 32089 ft | 527 kts | 323° |
| 2026-05-07 04:51 | -16.66251 | -51.80168 | 32085 ft | 528 kts | 323° |
| 2026-05-07 04:52 | -16.60166 | -51.84469 | 32087 ft | 527 kts | 323° |
| 2026-05-07 04:52 | -16.54050 | -51.88788 | 32081 ft | 528 kts | 323° |
| 2026-05-07 04:53 | -16.47979 | -51.93071 | 32078 ft | 527 kts | 323° |
| 2026-05-07 04:53 | -16.41910 | -51.97350 | 32069 ft | 527 kts | 323° |
| 2026-05-07 04:54 | -16.35837 | -52.01629 | 32063 ft | 527 kts | 323° |
| 2026-05-07 04:54 | -16.29764 | -52.05903 | 32055 ft | 526 kts | 323° |
| 2026-05-07 04:55 | -16.23619 | -52.10086 | 32050 ft | 525 kts | 324° |
| 2026-05-07 04:55 | -16.17506 | -52.14198 | 32045 ft | 524 kts | 324° |
| 2026-05-07 04:56 | -16.11358 | -52.18336 | 32043 ft | 525 kts | 324° |
| 2026-05-07 04:56 | -16.05222 | -52.22465 | 32038 ft | 526 kts | 324° |
| 2026-05-07 04:57 | -15.99046 | -52.26622 | 32029 ft | 526 kts | 324° |
| 2026-05-07 04:57 | -15.92921 | -52.30741 | 32031 ft | 525 kts | 324° |
| 2026-05-07 04:58 | -15.86726 | -52.34905 | 32022 ft | 526 kts | 324° |
| 2026-05-07 04:58 | -15.80611 | -52.39012 | 32026 ft | 526 kts | 324° |
| 2026-05-07 04:59 | -15.74444 | -52.43151 | 32038 ft | 525 kts | 324° |
| 2026-05-07 04:59 | -15.68304 | -52.47269 | 32049 ft | 524 kts | 324° |
| 2026-05-07 05:00 | -15.62185 | -52.51371 | 32054 ft | 524 kts | 324° |
| 2026-05-07 05:00 | -15.56031 | -52.55493 | 32049 ft | 524 kts | 324° |
| 2026-05-07 05:01 | -15.49899 | -52.59598 | 32041 ft | 524 kts | 324° |
| 2026-05-07 05:01 | -15.43785 | -52.63686 | 32041 ft | 523 kts | 324° |
| 2026-05-07 05:02 | -15.37596 | -52.67823 | 32043 ft | 524 kts | 324° |
| 2026-05-07 05:02 | -15.31480 | -52.71908 | 32041 ft | 524 kts | 324° |
| 2026-05-07 05:03 | -15.25376 | -52.75982 | 32042 ft | 523 kts | 324° |
| 2026-05-07 05:03 | -15.19222 | -52.80087 | 32039 ft | 524 kts | 324° |
| 2026-05-07 05:04 | -15.13114 | -52.84157 | 32044 ft | 523 kts | 324° |
| 2026-05-07 05:04 | -15.06968 | -52.88250 | 32046 ft | 522 kts | 324° |
| 2026-05-07 05:05 | -15.00880 | -52.92302 | 32048 ft | 523 kts | 324° |
| 2026-05-07 05:05 | -14.94759 | -52.96373 | 32054 ft | 521 kts | 324° |
| 2026-05-07 05:06 | -14.88637 | -53.00442 | 32050 ft | 522 kts | 324° |
| 2026-05-07 05:06 | -14.82518 | -53.04507 | 32052 ft | 522 kts | 324° |
| 2026-05-07 05:07 | -14.76403 | -53.08565 | 32054 ft | 522 kts | 324° |
| 2026-05-07 05:07 | -14.70258 | -53.12634 | 32053 ft | 523 kts | 326° |
| 2026-05-07 05:08 | -14.63893 | -53.16371 | 32057 ft | 525 kts | 328° |
| 2026-05-07 05:08 | -14.57544 | -53.20040 | 32057 ft | 523 kts | 328° |
| 2026-05-07 05:09 | -14.51168 | -53.23740 | 32058 ft | 524 kts | 328° |
| 2026-05-07 05:09 | -14.44843 | -53.27417 | 32058 ft | 523 kts | 328° |
| 2026-05-07 05:10 | -14.38479 | -53.31120 | 32052 ft | 523 kts | 328° |
| 2026-05-07 05:10 | -14.32116 | -53.34823 | 32048 ft | 524 kts | 328° |
| 2026-05-07 05:11 | -14.25752 | -53.38526 | 32040 ft | 524 kts | 328° |
| 2026-05-07 05:11 | -14.19410 | -53.42215 | 32032 ft | 524 kts | 328° |
| 2026-05-07 05:12 | -14.13057 | -53.45908 | 32025 ft | 524 kts | 328° |
| 2026-05-07 05:12 | -14.06664 | -53.49622 | 32016 ft | 524 kts | 328° |
| 2026-05-07 05:13 | -14.00308 | -53.53313 | 32017 ft | 523 kts | 328° |
| 2026-05-07 05:13 | -13.93966 | -53.56993 | 32020 ft | 522 kts | 328° |
| 2026-05-07 05:14 | -13.87601 | -53.60687 | 32021 ft | 523 kts | 328° |
| 2026-05-07 05:14 | -13.81213 | -53.64393 | 32018 ft | 524 kts | 328° |
| 2026-05-07 05:15 | -13.74844 | -53.68086 | 32022 ft | 524 kts | 328° |
| 2026-05-07 05:15 | -13.68507 | -53.71757 | 32022 ft | 523 kts | 328° |
| 2026-05-07 05:16 | -13.62151 | -53.75438 | 32020 ft | 523 kts | 328° |
| 2026-05-07 05:16 | -13.55757 | -53.79137 | 32021 ft | 523 kts | 328° |
| 2026-05-07 05:17 | -13.49417 | -53.82804 | 32019 ft | 523 kts | 328° |
| 2026-05-07 05:17 | -13.43085 | -53.86463 | 32028 ft | 521 kts | 328° |
| 2026-05-07 05:18 | -13.36732 | -53.90133 | 32016 ft | 523 kts | 328° |
| 2026-05-07 05:18 | -13.30374 | -53.93802 | 32021 ft | 523 kts | 328° |
| 2026-05-07 05:19 | -13.24001 | -53.97479 | 32022 ft | 523 kts | 328° |
| 2026-05-07 05:19 | -13.17689 | -54.01118 | 32020 ft | 523 kts | 328° |
| 2026-05-07 05:20 | -13.11333 | -54.04781 | 32021 ft | 522 kts | 328° |
| 2026-05-07 05:20 | -13.04980 | -54.08439 | 32021 ft | 521 kts | 328° |
| 2026-05-07 05:21 | -12.95475 | -54.13908 | 32033 ft | 520 kts | 328° |
| 2026-05-07 05:22 | -12.89122 | -54.17558 | 32023 ft | 519 kts | 328° |
| 2026-05-07 05:22 | -12.82773 | -54.21204 | 32020 ft | 521 kts | 328° |
| 2026-05-07 05:23 | -12.76435 | -54.24840 | 32016 ft | 520 kts | 328° |
| 2026-05-07 05:23 | -12.70126 | -54.28459 | 32022 ft | 522 kts | 328° |
| 2026-05-07 05:24 | -12.63746 | -54.32116 | 32021 ft | 522 kts | 328° |
| 2026-05-07 05:24 | -12.57390 | -54.35757 | 32021 ft | 521 kts | 328° |
| 2026-05-07 05:25 | -12.51049 | -54.39389 | 32021 ft | 521 kts | 328° |
| 2026-05-07 05:25 | -12.44748 | -54.42995 | 32020 ft | 519 kts | 329° |
| 2026-05-07 05:26 | -12.38420 | -54.46615 | 32023 ft | 520 kts | 329° |
| 2026-05-07 05:26 | -12.32102 | -54.50227 | 32022 ft | 520 kts | 329° |
| 2026-05-07 05:27 | -12.25735 | -54.53866 | 32021 ft | 521 kts | 329° |
| 2026-05-07 05:27 | -12.19378 | -54.57496 | 32023 ft | 520 kts | 329° |
| 2026-05-07 05:28 | -12.13025 | -54.61123 | 32028 ft | 521 kts | 329° |
| 2026-05-07 05:28 | -12.06724 | -54.64717 | 32036 ft | 519 kts | 329° |
| 2026-05-07 05:29 | -12.00384 | -54.68333 | 32042 ft | 519 kts | 329° |
| 2026-05-07 05:29 | -11.94021 | -54.71959 | 32042 ft | 519 kts | 329° |
| 2026-05-07 05:30 | -11.87670 | -54.75577 | 32035 ft | 519 kts | 329° |
| 2026-05-07 05:30 | -11.81367 | -54.79165 | 32031 ft | 520 kts | 329° |
| 2026-05-07 05:31 | -11.75045 | -54.82762 | 32028 ft | 519 kts | 329° |
| 2026-05-07 05:31 | -11.68673 | -54.86386 | 32024 ft | 518 kts | 329° |
| 2026-05-07 05:32 | -11.62396 | -54.89954 | 32021 ft | 518 kts | 329° |
| 2026-05-07 05:32 | -11.56081 | -54.93541 | 32020 ft | 518 kts | 329° |
| 2026-05-07 05:33 | -11.49756 | -54.97133 | 32013 ft | 518 kts | 329° |
| 2026-05-07 05:33 | -11.43433 | -55.00721 | 32011 ft | 518 kts | 329° |
| 2026-05-07 05:34 | -11.37114 | -55.04305 | 32012 ft | 518 kts | 329° |
| 2026-05-07 05:34 | -11.30830 | -55.07867 | 32010 ft | 518 kts | 329° |
| 2026-05-07 05:35 | -11.24499 | -55.11454 | 32007 ft | 518 kts | 329° |
| 2026-05-07 05:35 | -11.18191 | -55.15027 | 32009 ft | 518 kts | 329° |
| 2026-05-07 05:36 | -11.11840 | -55.18622 | 32011 ft | 517 kts | 329° |
| 2026-05-07 05:36 | -11.05544 | -55.22184 | 32017 ft | 518 kts | 329° |
| 2026-05-07 05:37 | -10.99211 | -55.25764 | 32018 ft | 517 kts | 329° |
| 2026-05-07 05:37 | -10.92885 | -55.29337 | 32015 ft | 519 kts | 330° |
| 2026-05-07 05:38 | -10.86577 | -55.32899 | 32009 ft | 518 kts | 330° |
| 2026-05-07 05:38 | -10.80242 | -55.36474 | 32004 ft | 519 kts | 330° |
| 2026-05-07 05:39 | -10.73919 | -55.40041 | 32002 ft | 519 kts | 330° |
| 2026-05-07 05:39 | -10.67602 | -55.43603 | 32000 ft | 519 kts | 330° |
| 2026-05-07 05:40 | -10.61279 | -55.47166 | 32003 ft | 518 kts | 330° |
| 2026-05-07 05:40 | -10.54944 | -55.50734 | 32005 ft | 520 kts | 330° |
| 2026-05-07 05:41 | -10.48619 | -55.54295 | 32004 ft | 519 kts | 330° |
| 2026-05-07 05:41 | -10.42287 | -55.57858 | 31995 ft | 520 kts | 330° |
| 2026-05-07 05:42 | -10.35915 | -55.61443 | 31990 ft | 519 kts | 330° |
| 2026-05-07 05:42 | -10.29596 | -55.64995 | 31983 ft | 520 kts | 330° |
| 2026-05-07 05:43 | -10.23230 | -55.68573 | 31972 ft | 520 kts | 330° |
| 2026-05-07 05:43 | -10.16900 | -55.72128 | 31972 ft | 519 kts | 330° |
| 2026-05-07 05:44 | -10.10566 | -55.75685 | 31967 ft | 521 kts | 330° |
| 2026-05-07 05:44 | -10.04192 | -55.79263 | 31971 ft | 521 kts | 330° |
| 2026-05-07 05:45 | -9.97843 | -55.82825 | 31974 ft | 521 kts | 330° |
| 2026-05-07 05:45 | -9.91494 | -55.86386 | 31971 ft | 520 kts | 330° |
| 2026-05-07 05:46 | -9.85134 | -55.89951 | 31966 ft | 519 kts | 330° |
| 2026-05-07 05:46 | -9.78815 | -55.93491 | 31963 ft | 520 kts | 330° |
| 2026-05-07 05:47 | -9.72465 | -55.97048 | 31964 ft | 520 kts | 330° |
| 2026-05-07 05:47 | -9.66081 | -56.00521 | 31975 ft | 520 kts | 333° |
| 2026-05-07 05:48 | -9.59498 | -56.03695 | 31980 ft | 521 kts | 334° |
| 2026-05-07 05:48 | -9.52915 | -56.06873 | 31978 ft | 521 kts | 333° |
| 2026-05-07 05:49 | -9.46391 | -56.10037 | 31975 ft | 521 kts | 333° |
| 2026-05-07 05:49 | -9.39823 | -56.13228 | 31968 ft | 520 kts | 333° |
| 2026-05-07 05:50 | -9.33309 | -56.16396 | 31963 ft | 519 kts | 333° |
| 2026-05-07 05:50 | -9.26761 | -56.19582 | 31959 ft | 520 kts | 333° |
| 2026-05-07 05:51 | -9.20251 | -56.22749 | 31955 ft | 519 kts | 333° |
| 2026-05-07 05:51 | -9.13716 | -56.25928 | 31957 ft | 520 kts | 333° |
| 2026-05-07 05:52 | -9.07146 | -56.29122 | 31955 ft | 519 kts | 333° |
| 2026-05-07 05:52 | -9.00629 | -56.32290 | 31955 ft | 519 kts | 333° |
| 2026-05-07 05:53 | -8.94116 | -56.35455 | 31957 ft | 519 kts | 333° |
| 2026-05-07 05:53 | -8.87575 | -56.38633 | 31948 ft | 519 kts | 333° |
| 2026-05-07 05:54 | -8.81045 | -56.41803 | 31947 ft | 519 kts | 333° |
| 2026-05-07 05:54 | -8.74480 | -56.44990 | 31943 ft | 519 kts | 333° |
| 2026-05-07 05:55 | -8.67942 | -56.48162 | 31946 ft | 520 kts | 333° |
| 2026-05-07 05:55 | -8.61409 | -56.51331 | 31951 ft | 520 kts | 333° |
| 2026-05-07 05:56 | -8.54850 | -56.54510 | 31961 ft | 520 kts | 333° |
| 2026-05-07 05:56 | -8.48284 | -56.57693 | 31979 ft | 520 kts | 333° |
| 2026-05-07 05:57 | -8.41747 | -56.60859 | 31993 ft | 520 kts | 334° |
| 2026-05-07 05:57 | -8.35217 | -56.64022 | 32000 ft | 520 kts | 334° |
| 2026-05-07 05:58 | -8.28646 | -56.67202 | 32002 ft | 520 kts | 334° |
| 2026-05-07 05:58 | -8.22082 | -56.70379 | 32005 ft | 522 kts | 334° |
| 2026-05-07 05:59 | -8.15540 | -56.73543 | 32003 ft | 522 kts | 334° |
| 2026-05-07 05:59 | -8.08960 | -56.76725 | 32007 ft | 521 kts | 334° |
| 2026-05-07 06:00 | -8.02411 | -56.79890 | 32005 ft | 521 kts | 334° |
| 2026-05-07 06:00 | -7.95843 | -56.83064 | 32002 ft | 520 kts | 334° |
| 2026-05-07 06:01 | -7.89270 | -56.86239 | 31994 ft | 520 kts | 334° |
| 2026-05-07 06:01 | -7.82707 | -56.89408 | 31996 ft | 519 kts | 334° |
| 2026-05-07 06:02 | -7.76164 | -56.92566 | 31990 ft | 520 kts | 334° |
| 2026-05-07 06:02 | -7.69617 | -56.95725 | 31986 ft | 521 kts | 334° |
| 2026-05-07 06:03 | -7.63054 | -56.98891 | 31984 ft | 520 kts | 334° |
| 2026-05-07 06:03 | -7.56539 | -57.02032 | 31972 ft | 521 kts | 334° |
| 2026-05-07 06:04 | -7.49963 | -57.05203 | 31968 ft | 520 kts | 334° |
| 2026-05-07 06:04 | -7.43419 | -57.08356 | 31964 ft | 520 kts | 334° |
| 2026-05-07 06:05 | -7.36874 | -57.11508 | 31965 ft | 521 kts | 334° |
| 2026-05-07 06:05 | -7.30293 | -57.14677 | 31963 ft | 520 kts | 334° |
| 2026-05-07 06:06 | -7.23775 | -57.17815 | 31966 ft | 520 kts | 334° |
| 2026-05-07 06:06 | -7.17210 | -57.20974 | 31960 ft | 521 kts | 334° |
| 2026-05-07 06:07 | -7.10664 | -57.24123 | 31953 ft | 521 kts | 334° |
| 2026-05-07 06:07 | -7.04121 | -57.27270 | 31945 ft | 519 kts | 334° |
| 2026-05-07 06:08 | -6.97593 | -57.30409 | 31941 ft | 520 kts | 334° |
| 2026-05-07 06:08 | -6.91023 | -57.33566 | 31942 ft | 519 kts | 334° |
| 2026-05-07 06:09 | -6.84486 | -57.36707 | 31942 ft | 519 kts | 334° |
| 2026-05-07 06:09 | -6.77928 | -57.39857 | 31942 ft | 518 kts | 334° |
| 2026-05-07 06:10 | -6.71369 | -57.43006 | 31943 ft | 519 kts | 334° |
| 2026-05-07 06:10 | -6.64850 | -57.46136 | 31945 ft | 518 kts | 334° |
| 2026-05-07 06:11 | -6.58292 | -57.49283 | 31947 ft | 519 kts | 334° |
| 2026-05-07 06:11 | -6.51767 | -57.52413 | 31948 ft | 519 kts | 334° |
| 2026-05-07 06:12 | -6.45224 | -57.55551 | 31946 ft | 518 kts | 334° |
| 2026-05-07 06:12 | -6.38731 | -57.58665 | 31941 ft | 518 kts | 334° |
| 2026-05-07 06:13 | -6.32190 | -57.61800 | 31937 ft | 518 kts | 334° |
| 2026-05-07 06:13 | -6.25683 | -57.64919 | 31935 ft | 516 kts | 334° |
| 2026-05-07 06:14 | -6.19139 | -57.68053 | 31932 ft | 516 kts | 335° |
| 2026-05-07 06:14 | -6.12641 | -57.71166 | 31934 ft | 516 kts | 335° |
| 2026-05-07 06:15 | -6.06126 | -57.74285 | 31937 ft | 515 kts | 334° |
| 2026-05-07 06:15 | -5.99643 | -57.77388 | 31939 ft | 515 kts | 335° |
| 2026-05-07 06:16 | -5.93153 | -57.80494 | 31940 ft | 515 kts | 335° |
| 2026-05-07 06:16 | -5.86628 | -57.83616 | 31938 ft | 514 kts | 335° |
| 2026-05-07 06:17 | -5.80150 | -57.86715 | 31937 ft | 514 kts | 335° |
| 2026-05-07 06:17 | -5.73710 | -57.89794 | 31938 ft | 515 kts | 335° |
| 2026-05-07 06:18 | -5.67184 | -57.92914 | 31936 ft | 516 kts | 335° |
| 2026-05-07 06:18 | -5.60667 | -57.96028 | 31933 ft | 515 kts | 335° |
| 2026-05-07 06:19 | -5.54186 | -57.99125 | 31932 ft | 515 kts | 335° |
| 2026-05-07 06:19 | -5.47654 | -58.02246 | 31927 ft | 516 kts | 335° |
| 2026-05-07 06:20 | -5.41144 | -58.05355 | 31922 ft | 515 kts | 335° |
| 2026-05-07 06:20 | -5.34684 | -58.08439 | 31918 ft | 514 kts | 335° |
| 2026-05-07 06:21 | -5.28201 | -58.11534 | 31911 ft | 514 kts | 335° |
| 2026-05-07 06:21 | -5.21695 | -58.14639 | 31916 ft | 514 kts | 335° |
| 2026-05-07 06:22 | -5.15220 | -58.17727 | 31914 ft | 515 kts | 335° |
| 2026-05-07 06:22 | -5.05489 | -58.22366 | 31913 ft | 516 kts | 335° |
| 2026-05-07 06:23 | -4.98954 | -58.25481 | 31914 ft | 515 kts | 335° |
| 2026-05-07 06:23 | -4.92495 | -58.28558 | 31911 ft | 514 kts | 335° |
| 2026-05-07 06:24 | -4.85937 | -58.31682 | 31912 ft | 514 kts | 335° |
| 2026-05-07 06:24 | -4.79474 | -58.34761 | 31911 ft | 515 kts | 335° |
| 2026-05-07 06:25 | -4.72963 | -58.37861 | 31910 ft | 514 kts | 335° |
| 2026-05-07 06:25 | -4.66462 | -58.40956 | 31909 ft | 515 kts | 335° |
| 2026-05-07 06:26 | -4.60000 | -58.44032 | 31911 ft | 514 kts | 335° |
| 2026-05-07 06:26 | -4.53508 | -58.47122 | 31912 ft | 514 kts | 335° |
| 2026-05-07 06:27 | -4.46994 | -58.50221 | 31911 ft | 514 kts | 335° |
| 2026-05-07 06:27 | -4.40530 | -58.53296 | 31918 ft | 514 kts | 335° |
| 2026-05-07 06:28 | -4.33973 | -58.56290 | 31920 ft | 513 kts | 336° |
| 2026-05-07 06:28 | -4.27454 | -58.59164 | 31919 ft | 513 kts | 336° |
| 2026-05-07 06:29 | -4.20908 | -58.62057 | 31922 ft | 513 kts | 336° |
| 2026-05-07 06:29 | -4.14308 | -58.64978 | 31924 ft | 514 kts | 336° |
| 2026-05-07 06:30 | -4.07749 | -58.67882 | 31924 ft | 513 kts | 336° |
| 2026-05-07 06:30 | -4.01196 | -58.70786 | 31930 ft | 513 kts | 336° |
| 2026-05-07 06:31 | -3.94604 | -58.73706 | 31929 ft | 513 kts | 336° |
| 2026-05-07 06:31 | -3.88038 | -58.76615 | 31929 ft | 512 kts | 336° |
| 2026-05-07 06:32 | -3.81506 | -58.79508 | 31929 ft | 513 kts | 336° |
| 2026-05-07 06:32 | -3.74968 | -58.82405 | 31928 ft | 513 kts | 336° |
| 2026-05-07 06:33 | -3.68402 | -58.85312 | 31928 ft | 513 kts | 336° |
| 2026-05-07 06:33 | -3.61864 | -58.88207 | 31928 ft | 512 kts | 336° |
| 2026-05-07 06:34 | -3.55341 | -58.91097 | 31927 ft | 513 kts | 336° |
| 2026-05-07 06:34 | -3.48804 | -58.93993 | 31927 ft | 513 kts | 336° |
| 2026-05-07 06:35 | -3.42241 | -58.96899 | 31927 ft | 513 kts | 336° |
| 2026-05-07 06:35 | -3.35717 | -58.99788 | 31927 ft | 513 kts | 336° |
| 2026-05-07 06:36 | -3.29179 | -59.02683 | 31927 ft | 513 kts | 336° |
| 2026-05-07 06:36 | -3.22729 | -59.05879 | 31924 ft | 514 kts | 332° |
| 2026-05-07 06:37 | -3.16420 | -59.09240 | 31928 ft | 514 kts | 332° |
| 2026-05-07 06:37 | -3.10084 | -59.12594 | 31929 ft | 514 kts | 333° |
| 2026-05-07 06:38 | -3.03664 | -59.15856 | 31934 ft | 514 kts | 336° |
| 2026-05-07 06:38 | -2.97111 | -59.18815 | 31932 ft | 515 kts | 336° |
| 2026-05-07 06:39 | -2.90579 | -59.21769 | 31932 ft | 515 kts | 336° |
| 2026-05-07 06:39 | -2.83984 | -59.24757 | 31933 ft | 514 kts | 336° |
| 2026-05-07 06:40 | -2.77471 | -59.27712 | 31933 ft | 515 kts | 336° |
| 2026-05-07 06:40 | -2.70892 | -59.30701 | 31933 ft | 515 kts | 336° |
| 2026-05-07 06:41 | -2.64340 | -59.33678 | 31930 ft | 516 kts | 336° |
| 2026-05-07 06:41 | -2.57745 | -59.36676 | 31929 ft | 518 kts | 336° |
| 2026-05-07 06:42 | -2.51204 | -59.39650 | 31930 ft | 517 kts | 336° |
| 2026-05-07 06:42 | -2.44628 | -59.42640 | 31926 ft | 517 kts | 336° |
| 2026-05-07 06:43 | -2.38070 | -59.45622 | 31927 ft | 516 kts | 336° |
| 2026-05-07 06:43 | -2.31501 | -59.48608 | 31930 ft | 517 kts | 336° |
| 2026-05-07 06:44 | -2.24924 | -59.51597 | 31934 ft | 518 kts | 336° |
| 2026-05-07 06:44 | -2.18306 | -59.54605 | 31936 ft | 518 kts | 336° |
| 2026-05-07 06:45 | -2.11727 | -59.57595 | 31935 ft | 518 kts | 336° |
| 2026-05-07 06:45 | -2.05145 | -59.60586 | 31936 ft | 518 kts | 336° |
| 2026-05-07 06:46 | -1.98565 | -59.63576 | 31938 ft | 519 kts | 336° |
| 2026-05-07 06:46 | -1.91948 | -59.66582 | 31935 ft | 518 kts | 336° |
| 2026-05-07 06:47 | -1.85345 | -59.69582 | 31934 ft | 518 kts | 336° |
| 2026-05-07 06:47 | -1.78771 | -59.72569 | 31933 ft | 518 kts | 336° |
| 2026-05-07 06:48 | -1.72169 | -59.75567 | 31930 ft | 519 kts | 336° |
| 2026-05-07 06:48 | -1.65558 | -59.78570 | 31932 ft | 521 kts | 336° |
| 2026-05-07 06:49 | -1.58953 | -59.81570 | 31932 ft | 520 kts | 336° |
| 2026-05-07 06:49 | -1.52358 | -59.84566 | 31933 ft | 520 kts | 336° |
| 2026-05-07 06:50 | -1.45718 | -59.87585 | 31933 ft | 521 kts | 336° |
| 2026-05-07 06:50 | -1.39105 | -59.90591 | 31933 ft | 521 kts | 336° |
| 2026-05-07 06:51 | -1.32458 | -59.93612 | 31934 ft | 523 kts | 336° |
| 2026-05-07 06:51 | -1.25817 | -59.96630 | 31934 ft | 522 kts | 336° |
| 2026-05-07 06:52 | -1.19193 | -59.99640 | 31935 ft | 523 kts | 336° |
| 2026-05-07 06:52 | -1.12516 | -60.02674 | 31935 ft | 523 kts | 336° |
| 2026-05-07 06:53 | -1.05898 | -60.05681 | 31944 ft | 521 kts | 336° |
| 2026-05-07 06:53 | -0.99279 | -60.08689 | 31953 ft | 521 kts | 336° |
| 2026-05-07 06:54 | -0.92632 | -60.11706 | 31953 ft | 522 kts | 336° |
| 2026-05-07 06:54 | -0.85993 | -60.14718 | 31951 ft | 521 kts | 336° |
| 2026-05-07 06:55 | -0.79326 | -60.17744 | 31951 ft | 522 kts | 336° |
| 2026-05-07 06:55 | -0.72675 | -60.20761 | 31950 ft | 522 kts | 336° |
| 2026-05-07 06:56 | -0.66042 | -60.23772 | 31950 ft | 520 kts | 336° |
| 2026-05-07 06:56 | -0.59431 | -60.26772 | 31950 ft | 520 kts | 336° |
| 2026-05-07 06:57 | -0.52846 | -60.29760 | 31952 ft | 519 kts | 336° |
| 2026-05-07 06:57 | -0.46218 | -60.32767 | 31952 ft | 519 kts | 336° |
| 2026-05-07 06:58 | -0.39612 | -60.35765 | 31954 ft | 520 kts | 336° |
| 2026-05-07 06:58 | -0.33040 | -60.38748 | 31955 ft | 518 kts | 336° |
| 2026-05-07 06:59 | -0.26419 | -60.41753 | 31955 ft | 519 kts | 336° |
| 2026-05-07 06:59 | -0.19829 | -60.44744 | 31955 ft | 518 kts | 336° |
| 2026-05-07 07:00 | -0.13200 | -60.47754 | 31956 ft | 518 kts | 336° |
| 2026-05-07 07:00 | -0.06621 | -60.50740 | 31953 ft | 518 kts | 336° |
| 2026-05-07 07:01 | -0.00070 | -60.53713 | 31956 ft | 517 kts | 336° |
| 2026-05-07 07:01 | 0.06527 | -60.56708 | 31954 ft | 517 kts | 336° |
| 2026-05-07 07:02 | 0.13120 | -60.59700 | 31955 ft | 517 kts | 335° |
| 2026-05-07 07:02 | 0.19708 | -60.62690 | 31953 ft | 518 kts | 335° |
| 2026-05-07 07:03 | 0.26324 | -60.65694 | 31953 ft | 518 kts | 335° |
| 2026-05-07 07:03 | 0.32919 | -60.68687 | 31952 ft | 518 kts | 335° |
| 2026-05-07 07:04 | 0.39496 | -60.71673 | 31953 ft | 517 kts | 335° |
| 2026-05-07 07:04 | 0.46077 | -60.74660 | 31953 ft | 518 kts | 335° |
| 2026-05-07 07:05 | 0.52633 | -60.77636 | 31953 ft | 518 kts | 335° |
| 2026-05-07 07:05 | 0.59226 | -60.80629 | 31957 ft | 518 kts | 335° |
| 2026-05-07 07:06 | 0.65818 | -60.83621 | 31956 ft | 517 kts | 335° |
| 2026-05-07 07:06 | 0.72389 | -60.86605 | 31949 ft | 518 kts | 335° |
| 2026-05-07 07:07 | 0.78951 | -60.89584 | 31946 ft | 517 kts | 335° |
| 2026-05-07 07:07 | 0.85528 | -60.92570 | 31935 ft | 515 kts | 335° |
| 2026-05-07 07:08 | 0.92029 | -60.95521 | 31935 ft | 516 kts | 335° |
| 2026-05-07 07:08 | 0.98625 | -60.98516 | 31934 ft | 517 kts | 335° |
| 2026-05-07 07:09 | 1.05156 | -61.01481 | 31932 ft | 516 kts | 335° |
| 2026-05-07 07:09 | 1.11772 | -61.04486 | 31932 ft | 518 kts | 335° |
| 2026-05-07 07:10 | 1.18338 | -61.07467 | 31934 ft | 516 kts | 335° |
| 2026-05-07 07:10 | 1.24916 | -61.10455 | 31936 ft | 516 kts | 335° |
| 2026-05-07 07:11 | 1.31462 | -61.13428 | 31935 ft | 516 kts | 335° |
| 2026-05-07 07:11 | 1.38050 | -61.16420 | 31935 ft | 517 kts | 335° |
| 2026-05-07 07:12 | 1.44631 | -61.19409 | 31931 ft | 516 kts | 335° |
| 2026-05-07 07:12 | 1.51187 | -61.22387 | 31934 ft | 518 kts | 335° |
| 2026-05-07 07:13 | 1.57766 | -61.25375 | 31936 ft | 517 kts | 335° |
| 2026-05-07 07:13 | 1.64369 | -61.28375 | 31937 ft | 519 kts | 335° |
| 2026-05-07 07:14 | 1.70968 | -61.31373 | 31935 ft | 518 kts | 335° |
| 2026-05-07 07:14 | 1.77522 | -61.34351 | 31936 ft | 517 kts | 335° |
| 2026-05-07 07:15 | 1.84113 | -61.37346 | 31935 ft | 518 kts | 335° |
| 2026-05-07 07:15 | 1.90718 | -61.40348 | 31938 ft | 518 kts | 335° |
| 2026-05-07 07:16 | 1.97285 | -61.43332 | 31942 ft | 518 kts | 335° |
| 2026-05-07 07:16 | 2.03868 | -61.46324 | 31940 ft | 516 kts | 335° |
| 2026-05-07 07:17 | 2.10468 | -61.49324 | 31942 ft | 518 kts | 335° |
| 2026-05-07 07:17 | 2.17073 | -61.52327 | 31949 ft | 518 kts | 335° |
| 2026-05-07 07:18 | 2.23652 | -61.55318 | 31946 ft | 516 kts | 335° |
| 2026-05-07 07:18 | 2.30219 | -61.58304 | 31949 ft | 517 kts | 335° |
| 2026-05-07 07:19 | 2.36771 | -61.61283 | 31954 ft | 518 kts | 335° |
| 2026-05-07 07:19 | 2.43332 | -61.64267 | 31957 ft | 517 kts | 335° |
| 2026-05-07 07:20 | 2.49955 | -61.67279 | 31963 ft | 518 kts | 335° |
| 2026-05-07 07:20 | 2.56482 | -61.70248 | 31962 ft | 516 kts | 335° |
| 2026-05-07 07:21 | 2.63090 | -61.73255 | 31963 ft | 518 kts | 335° |
| 2026-05-07 07:21 | 2.69646 | -61.76237 | 31964 ft | 517 kts | 335° |
| 2026-05-07 07:22 | 2.76248 | -61.79242 | 31968 ft | 518 kts | 335° |
| 2026-05-07 07:22 | 2.82816 | -61.82230 | 31970 ft | 517 kts | 335° |
| 2026-05-07 07:23 | 2.89372 | -61.85212 | 31972 ft | 516 kts | 335° |
| 2026-05-07 07:23 | 2.95957 | -61.88208 | 31975 ft | 517 kts | 335° |
| 2026-05-07 07:24 | 3.02548 | -61.91206 | 31978 ft | 516 kts | 335° |
| 2026-05-07 07:24 | 3.09126 | -61.94200 | 31978 ft | 516 kts | 335° |
| 2026-05-07 07:25 | 3.19039 | -61.98711 | 31971 ft | 516 kts | 335° |
| 2026-05-07 07:26 | 3.25632 | -62.01712 | 31965 ft | 515 kts | 335° |
| 2026-05-07 07:26 | 3.32192 | -62.04699 | 31967 ft | 515 kts | 335° |
| 2026-05-07 07:27 | 3.38763 | -62.07690 | 31979 ft | 515 kts | 335° |
| 2026-05-07 07:27 | 3.45336 | -62.10684 | 31979 ft | 515 kts | 335° |
| 2026-05-07 07:28 | 3.51872 | -62.13660 | 31980 ft | 515 kts | 335° |
| 2026-05-07 07:28 | 3.58459 | -62.16661 | 31983 ft | 514 kts | 335° |
| 2026-05-07 07:29 | 3.65008 | -62.19645 | 31988 ft | 513 kts | 335° |
| 2026-05-07 07:29 | 3.71597 | -62.22647 | 31998 ft | 512 kts | 335° |
| 2026-05-07 07:30 | 3.78142 | -62.25630 | 32002 ft | 513 kts | 335° |
| 2026-05-07 07:30 | 3.84652 | -62.28597 | 32009 ft | 512 kts | 335° |
| 2026-05-07 07:31 | 3.91127 | -62.31549 | 32017 ft | 514 kts | 335° |
| 2026-05-07 07:31 | 3.97703 | -62.34548 | 32024 ft | 514 kts | 335° |
| 2026-05-07 07:32 | 4.04206 | -62.37513 | 32032 ft | 514 kts | 335° |
| 2026-05-07 07:32 | 4.10729 | -62.40489 | 32038 ft | 514 kts | 335° |
| 2026-05-07 07:33 | 4.17264 | -62.43470 | 32052 ft | 513 kts | 335° |
| 2026-05-07 07:33 | 4.23597 | -62.46808 | 32063 ft | 513 kts | 330° |
| 2026-05-07 07:34 | 4.29850 | -62.50367 | 32085 ft | 512 kts | 330° |
| 2026-05-07 07:34 | 4.36112 | -62.53904 | 32107 ft | 511 kts | 330° |
| 2026-05-07 07:35 | 4.42348 | -62.57408 | 32122 ft | 512 kts | 330° |
| 2026-05-07 07:35 | 4.48579 | -62.60901 | 32128 ft | 512 kts | 330° |
| 2026-05-07 07:36 | 4.54852 | -62.64413 | 32119 ft | 512 kts | 330° |
| 2026-05-07 07:36 | 4.61060 | -62.67886 | 32104 ft | 512 kts | 330° |
| 2026-05-07 07:37 | 4.67293 | -62.71372 | 32092 ft | 511 kts | 330° |
| 2026-05-07 07:37 | 4.73523 | -62.74857 | 32089 ft | 511 kts | 330° |
| 2026-05-07 07:38 | 4.79759 | -62.78345 | 32098 ft | 510 kts | 330° |
| 2026-05-07 07:38 | 4.86039 | -62.81858 | 32101 ft | 510 kts | 330° |
| 2026-05-07 07:39 | 4.92300 | -62.85361 | 32106 ft | 509 kts | 330° |
| 2026-05-07 07:39 | 4.98529 | -62.88847 | 32109 ft | 510 kts | 330° |
| 2026-05-07 07:40 | 5.04728 | -62.92317 | 32102 ft | 510 kts | 330° |
| 2026-05-07 07:40 | 5.11006 | -62.95831 | 32098 ft | 511 kts | 330° |
| 2026-05-07 07:41 | 5.17212 | -62.99307 | 32096 ft | 510 kts | 330° |
| 2026-05-07 07:41 | 5.23447 | -63.02799 | 32096 ft | 511 kts | 330° |
| 2026-05-07 07:42 | 5.29697 | -63.06301 | 32091 ft | 510 kts | 330° |
| 2026-05-07 07:42 | 5.35929 | -63.09793 | 32082 ft | 510 kts | 330° |
| 2026-05-07 07:43 | 5.42213 | -63.13315 | 32082 ft | 511 kts | 330° |
| 2026-05-07 07:43 | 5.48459 | -63.16817 | 32083 ft | 512 kts | 330° |
| 2026-05-07 07:44 | 5.54716 | -63.20326 | 32086 ft | 512 kts | 330° |
| 2026-05-07 07:44 | 5.60964 | -63.23830 | 32086 ft | 513 kts | 330° |
| 2026-05-07 07:45 | 5.67240 | -63.27351 | 32087 ft | 513 kts | 330° |
| 2026-05-07 07:45 | 5.73496 | -63.30862 | 32081 ft | 513 kts | 330° |
| 2026-05-07 07:46 | 5.79769 | -63.34383 | 32070 ft | 513 kts | 330° |
| 2026-05-07 07:46 | 5.86009 | -63.37887 | 32055 ft | 514 kts | 330° |
| 2026-05-07 07:47 | 5.92244 | -63.41388 | 32049 ft | 514 kts | 330° |
| 2026-05-07 07:47 | 5.98519 | -63.44914 | 32045 ft | 514 kts | 330° |
| 2026-05-07 07:48 | 6.04788 | -63.48437 | 32043 ft | 515 kts | 330° |
| 2026-05-07 07:48 | 6.11111 | -63.51991 | 32042 ft | 515 kts | 330° |
| 2026-05-07 07:49 | 6.17351 | -63.55499 | 32042 ft | 515 kts | 330° |
| 2026-05-07 07:49 | 6.23640 | -63.59036 | 32049 ft | 515 kts | 330° |
| 2026-05-07 07:50 | 6.29920 | -63.62568 | 32040 ft | 515 kts | 330° |
| 2026-05-07 07:50 | 6.36197 | -63.66100 | 32031 ft | 515 kts | 329° |
| 2026-05-07 07:51 | 6.42483 | -63.69638 | 32026 ft | 514 kts | 329° |
| 2026-05-07 07:51 | 6.48791 | -63.73190 | 32023 ft | 514 kts | 329° |
| 2026-05-07 07:52 | 6.55097 | -63.76741 | 32024 ft | 515 kts | 329° |
| 2026-05-07 07:52 | 6.61397 | -63.80290 | 32028 ft | 515 kts | 329° |
| 2026-05-07 07:53 | 6.67669 | -63.83825 | 32028 ft | 515 kts | 329° |
| 2026-05-07 07:53 | 6.73947 | -63.87364 | 32029 ft | 515 kts | 329° |
| 2026-05-07 07:54 | 6.80261 | -63.90924 | 32029 ft | 515 kts | 329° |
| 2026-05-07 07:54 | 6.86509 | -63.94448 | 32029 ft | 514 kts | 329° |
| 2026-05-07 07:55 | 6.92779 | -63.97985 | 32032 ft | 514 kts | 329° |
| 2026-05-07 07:55 | 6.99082 | -64.01542 | 32036 ft | 515 kts | 329° |
| 2026-05-07 07:56 | 7.05348 | -64.05080 | 32028 ft | 515 kts | 329° |
| 2026-05-07 07:56 | 7.11636 | -64.08630 | 32022 ft | 515 kts | 329° |
| 2026-05-07 07:57 | 7.17884 | -64.12160 | 32020 ft | 515 kts | 329° |
| 2026-05-07 07:57 | 7.24157 | -64.15704 | 32027 ft | 514 kts | 329° |
| 2026-05-07 07:58 | 7.30411 | -64.19239 | 32030 ft | 514 kts | 329° |
| 2026-05-07 07:58 | 7.36672 | -64.22772 | 32026 ft | 513 kts | 329° |
| 2026-05-07 07:59 | 7.42902 | -64.26288 | 32017 ft | 513 kts | 329° |
| 2026-05-07 07:59 | 7.49125 | -64.29800 | 32006 ft | 513 kts | 329° |
| 2026-05-07 08:00 | 7.55364 | -64.33323 | 31997 ft | 513 kts | 329° |
| 2026-05-07 08:00 | 7.61598 | -64.36845 | 31990 ft | 513 kts | 329° |
| 2026-05-07 08:01 | 7.67853 | -64.40379 | 31984 ft | 513 kts | 329° |
| 2026-05-07 08:01 | 7.74061 | -64.43889 | 31980 ft | 512 kts | 329° |
| 2026-05-07 08:02 | 7.80316 | -64.47426 | 31974 ft | 512 kts | 329° |
| 2026-05-07 08:02 | 7.86500 | -64.50924 | 31970 ft | 511 kts | 329° |
| 2026-05-07 08:03 | 7.92752 | -64.54462 | 31962 ft | 511 kts | 329° |
| 2026-05-07 08:03 | 7.98971 | -64.57982 | 31958 ft | 510 kts | 329° |
| 2026-05-07 08:04 | 8.05167 | -64.61491 | 31958 ft | 510 kts | 329° |
| 2026-05-07 08:04 | 8.11358 | -64.64997 | 31960 ft | 510 kts | 329° |
| 2026-05-07 08:05 | 8.17608 | -64.68539 | 31968 ft | 509 kts | 328° |
| 2026-05-07 08:05 | 8.23793 | -64.72045 | 31970 ft | 509 kts | 328° |
| 2026-05-07 08:06 | 8.29966 | -64.75545 | 31973 ft | 509 kts | 328° |
| 2026-05-07 08:06 | 8.36160 | -64.79060 | 31978 ft | 509 kts | 328° |
| 2026-05-07 08:07 | 8.42357 | -64.82577 | 31979 ft | 508 kts | 328° |
| 2026-05-07 08:07 | 8.48529 | -64.86080 | 31980 ft | 509 kts | 328° |
| 2026-05-07 08:08 | 8.54724 | -64.89598 | 31982 ft | 509 kts | 328° |
| 2026-05-07 08:08 | 8.60887 | -64.93100 | 31981 ft | 509 kts | 328° |
| 2026-05-07 08:09 | 8.67078 | -64.96619 | 31973 ft | 508 kts | 328° |
| 2026-05-07 08:09 | 8.73245 | -65.00125 | 31966 ft | 507 kts | 328° |
| 2026-05-07 08:10 | 8.79388 | -65.03619 | 31962 ft | 507 kts | 328° |
| 2026-05-07 08:10 | 8.85542 | -65.07121 | 31962 ft | 507 kts | 328° |
| 2026-05-07 08:11 | 8.91693 | -65.10622 | 31959 ft | 506 kts | 328° |
| 2026-05-07 08:11 | 8.97868 | -65.14137 | 31959 ft | 506 kts | 328° |
| 2026-05-07 08:12 | 9.04027 | -65.17645 | 31955 ft | 506 kts | 328° |
| 2026-05-07 08:12 | 9.10149 | -65.21133 | 31955 ft | 506 kts | 328° |
| 2026-05-07 08:13 | 9.16291 | -65.24634 | 31954 ft | 505 kts | 328° |
| 2026-05-07 08:13 | 9.22452 | -65.28147 | 31953 ft | 505 kts | 328° |
| 2026-05-07 08:14 | 9.28574 | -65.31640 | 31953 ft | 505 kts | 328° |
| 2026-05-07 08:14 | 9.34713 | -65.35143 | 31953 ft | 505 kts | 328° |
| 2026-05-07 08:15 | 9.40834 | -65.38638 | 31958 ft | 505 kts | 328° |
| 2026-05-07 08:15 | 9.46973 | -65.42144 | 31956 ft | 505 kts | 328° |
| 2026-05-07 08:16 | 9.53102 | -65.45646 | 31966 ft | 504 kts | 328° |
| 2026-05-07 08:16 | 9.59221 | -65.49143 | 31970 ft | 504 kts | 328° |
| 2026-05-07 08:17 | 9.65346 | -65.52646 | 31977 ft | 504 kts | 328° |
| 2026-05-07 08:17 | 9.71477 | -65.56126 | 31979 ft | 504 kts | 328° |
| 2026-05-07 08:18 | 9.77584 | -65.59589 | 31986 ft | 504 kts | 328° |
| 2026-05-07 08:18 | 9.83692 | -65.63054 | 31997 ft | 504 kts | 328° |
| 2026-05-07 08:19 | 9.89865 | -65.66559 | 32017 ft | 504 kts | 328° |
| 2026-05-07 08:19 | 9.95995 | -65.70040 | 32030 ft | 503 kts | 328° |
| 2026-05-07 08:20 | 10.02101 | -65.73509 | 32047 ft | 503 kts | 328° |
| 2026-05-07 08:20 | 10.08231 | -65.76995 | 32031 ft | 501 kts | 328° |
| 2026-05-07 08:21 | 10.14335 | -65.80470 | 32013 ft | 503 kts | 328° |
| 2026-05-07 08:21 | 10.20443 | -65.83949 | 31997 ft | 503 kts | 328° |
| 2026-05-07 08:22 | 10.26546 | -65.87427 | 31984 ft | 503 kts | 328° |
| 2026-05-07 08:22 | 10.32693 | -65.90931 | 31986 ft | 503 kts | 328° |
| 2026-05-07 08:23 | 10.38811 | -65.94420 | 31980 ft | 503 kts | 328° |
| 2026-05-07 08:23 | 10.44905 | -65.97897 | 31978 ft | 503 kts | 328° |
| 2026-05-07 08:24 | 10.51010 | -66.01382 | 31976 ft | 503 kts | 328° |
| 2026-05-07 08:24 | 10.57154 | -66.04890 | 31972 ft | 503 kts | 327° |
| 2026-05-07 08:25 | 10.63018 | -66.08716 | 31970 ft | 500 kts | 322° |
| 2026-05-07 08:25 | 10.68749 | -66.12687 | 31969 ft | 500 kts | 322° |
| 2026-05-07 08:26 | 10.77428 | -66.18653 | 31948 ft | 500 kts | 323° |
| 2026-05-07 08:26 | 10.83197 | -66.22608 | 31945 ft | 499 kts | 322° |
| 2026-05-07 08:27 | 10.88881 | -66.26609 | 31937 ft | 498 kts | 322° |
| 2026-05-07 08:27 | 10.94604 | -66.30643 | 31941 ft | 499 kts | 322° |
| 2026-05-07 08:28 | 11.00330 | -66.34677 | 31935 ft | 499 kts | 322° |
| 2026-05-07 08:28 | 11.06013 | -66.38676 | 31937 ft | 499 kts | 322° |
| 2026-05-07 08:29 | 11.11747 | -66.42709 | 31937 ft | 499 kts | 322° |
| 2026-05-07 08:29 | 11.17452 | -66.46722 | 31935 ft | 499 kts | 322° |
| 2026-05-07 08:30 | 11.23179 | -66.50731 | 31933 ft | 498 kts | 322° |
| 2026-05-07 08:30 | 11.28904 | -66.54741 | 31932 ft | 497 kts | 322° |
| 2026-05-07 08:31 | 11.34593 | -66.58727 | 31929 ft | 497 kts | 322° |
| 2026-05-07 08:31 | 11.40302 | -66.62731 | 31931 ft | 498 kts | 322° |
| 2026-05-07 08:32 | 11.46049 | -66.66763 | 31940 ft | 497 kts | 322° |
| 2026-05-07 08:32 | 11.51747 | -66.70763 | 31940 ft | 497 kts | 322° |
| 2026-05-07 08:33 | 11.57455 | -66.74770 | 31939 ft | 497 kts | 322° |
| 2026-05-07 08:33 | 11.63156 | -66.78765 | 31941 ft | 496 kts | 322° |
| 2026-05-07 08:34 | 11.68832 | -66.82741 | 31942 ft | 495 kts | 322° |
| 2026-05-07 08:34 | 11.74535 | -66.86737 | 31942 ft | 496 kts | 322° |
| 2026-05-07 08:35 | 11.80198 | -66.90707 | 31944 ft | 496 kts | 322° |
| 2026-05-07 08:35 | 11.85929 | -66.94716 | 31946 ft | 496 kts | 322° |
| 2026-05-07 08:36 | 11.91614 | -66.98695 | 31947 ft | 496 kts | 322° |
| 2026-05-07 08:36 | 11.97328 | -67.02698 | 31946 ft | 496 kts | 322° |
| 2026-05-07 08:37 | 12.03021 | -67.06683 | 31947 ft | 495 kts | 322° |
| 2026-05-07 08:37 | 12.08733 | -67.10678 | 31947 ft | 496 kts | 322° |
| 2026-05-07 08:38 | 12.14418 | -67.14656 | 31942 ft | 494 kts | 322° |
| 2026-05-07 08:38 | 12.20103 | -67.18638 | 31942 ft | 495 kts | 322° |
| 2026-05-07 08:39 | 12.25742 | -67.22588 | 31942 ft | 493 kts | 322° |
| 2026-05-07 08:39 | 12.31431 | -67.26576 | 31942 ft | 493 kts | 322° |
| 2026-05-07 08:40 | 12.37106 | -67.30557 | 31941 ft | 494 kts | 322° |
| 2026-05-07 08:40 | 12.42753 | -67.34520 | 31938 ft | 492 kts | 323° |
| 2026-05-07 08:41 | 12.48410 | -67.38492 | 31939 ft | 490 kts | 323° |
| 2026-05-07 08:41 | 12.54012 | -67.42428 | 31937 ft | 490 kts | 323° |
| 2026-05-07 08:42 | 12.59656 | -67.46395 | 31938 ft | 490 kts | 323° |
| 2026-05-07 08:42 | 12.65265 | -67.50339 | 31939 ft | 488 kts | 323° |
| 2026-05-07 08:43 | 12.70873 | -67.54286 | 31944 ft | 488 kts | 323° |
| 2026-05-07 08:43 | 12.76448 | -67.58211 | 31947 ft | 487 kts | 323° |
| 2026-05-07 08:44 | 12.82073 | -67.62174 | 31942 ft | 487 kts | 323° |
| 2026-05-07 08:44 | 12.87666 | -67.66116 | 31947 ft | 488 kts | 324° |
| 2026-05-07 08:45 | 12.93226 | -67.70049 | 31949 ft | 486 kts | 323° |
| 2026-05-07 08:45 | 12.98818 | -67.74011 | 31946 ft | 485 kts | 324° |
| 2026-05-07 08:46 | 13.04361 | -67.77940 | 31954 ft | 485 kts | 324° |
| 2026-05-07 08:46 | 13.09917 | -67.81883 | 31951 ft | 485 kts | 324° |
| 2026-05-07 08:47 | 13.15470 | -67.85834 | 31960 ft | 484 kts | 324° |
| 2026-05-07 08:47 | 13.20999 | -67.89770 | 31955 ft | 484 kts | 324° |
| 2026-05-07 08:48 | 13.26553 | -67.93726 | 31958 ft | 484 kts | 324° |
| 2026-05-07 08:48 | 13.32104 | -67.97688 | 31951 ft | 485 kts | 324° |
| 2026-05-07 08:49 | 13.37605 | -68.01617 | 31954 ft | 484 kts | 324° |
| 2026-05-07 08:49 | 13.43163 | -68.05588 | 31955 ft | 483 kts | 324° |
| 2026-05-07 08:50 | 13.48671 | -68.09526 | 31958 ft | 484 kts | 324° |
| 2026-05-07 08:50 | 13.54188 | -68.13473 | 31954 ft | 480 kts | 325° |
| 2026-05-07 08:51 | 13.59670 | -68.17396 | 31953 ft | 480 kts | 325° |
| 2026-05-07 08:51 | 13.65154 | -68.21323 | 31960 ft | 479 kts | 325° |
| 2026-05-07 08:52 | 13.70630 | -68.25248 | 31960 ft | 481 kts | 325° |
| 2026-05-07 08:52 | 13.76132 | -68.29192 | 31957 ft | 479 kts | 325° |
| 2026-05-07 08:53 | 13.81607 | -68.33120 | 31958 ft | 478 kts | 325° |
| 2026-05-07 08:53 | 13.87085 | -68.37022 | 31960 ft | 479 kts | 326° |
| 2026-05-07 08:54 | 13.92551 | -68.40893 | 31960 ft | 477 kts | 326° |
| 2026-05-07 08:54 | 13.98049 | -68.44800 | 31958 ft | 476 kts | 325° |
| 2026-05-07 08:55 | 14.03459 | -68.48697 | 31958 ft | 478 kts | 326° |
| 2026-05-07 08:55 | 14.08931 | -68.52640 | 31958 ft | 476 kts | 326° |
| 2026-05-07 08:56 | 14.14361 | -68.56555 | 31968 ft | 476 kts | 326° |
| 2026-05-07 08:56 | 14.19802 | -68.60480 | 31966 ft | 476 kts | 326° |
| 2026-05-07 08:57 | 14.25236 | -68.64401 | 31964 ft | 477 kts | 326° |
| 2026-05-07 08:57 | 14.30655 | -68.68314 | 31972 ft | 477 kts | 326° |
| 2026-05-07 08:58 | 14.36079 | -68.72232 | 31966 ft | 477 kts | 326° |
| 2026-05-07 08:58 | 14.41536 | -68.76170 | 31969 ft | 476 kts | 326° |
| 2026-05-07 08:59 | 14.46974 | -68.80087 | 31968 ft | 477 kts | 326° |
| 2026-05-07 08:59 | 14.52432 | -68.84023 | 31965 ft | 477 kts | 326° |
| 2026-05-07 09:00 | 14.57882 | -68.87954 | 31963 ft | 478 kts | 326° |
| 2026-05-07 09:00 | 14.63302 | -68.91868 | 31966 ft | 478 kts | 327° |
| 2026-05-07 09:01 | 14.68746 | -68.95800 | 31965 ft | 477 kts | 326° |
| 2026-05-07 09:01 | 14.74215 | -68.99753 | 31967 ft | 477 kts | 326° |
| 2026-05-07 09:02 | 14.79650 | -69.03686 | 31964 ft | 478 kts | 327° |
| 2026-05-07 09:02 | 14.85105 | -69.07641 | 31959 ft | 477 kts | 327° |
| 2026-05-07 09:03 | 14.90561 | -69.11597 | 31958 ft | 478 kts | 327° |
| 2026-05-07 09:03 | 14.96004 | -69.15540 | 31958 ft | 477 kts | 327° |
| 2026-05-07 09:04 | 15.01445 | -69.19484 | 31960 ft | 478 kts | 327° |
| 2026-05-07 09:04 | 15.06860 | -69.23412 | 31961 ft | 478 kts | 327° |
| 2026-05-07 09:05 | 15.12302 | -69.27362 | 31973 ft | 476 kts | 327° |
| 2026-05-07 09:05 | 15.17753 | -69.31321 | 31975 ft | 477 kts | 327° |
| 2026-05-07 09:06 | 15.23219 | -69.35242 | 31977 ft | 475 kts | 327° |
| 2026-05-07 09:06 | 15.28660 | -69.39131 | 31974 ft | 476 kts | 327° |
| 2026-05-07 09:07 | 15.34119 | -69.43037 | 31977 ft | 474 kts | 327° |
| 2026-05-07 09:07 | 15.39555 | -69.46931 | 31977 ft | 476 kts | 328° |
| 2026-05-07 09:08 | 15.44976 | -69.50817 | 31975 ft | 475 kts | 328° |
| 2026-05-07 09:08 | 15.50436 | -69.54733 | 31975 ft | 476 kts | 328° |
| 2026-05-07 09:09 | 15.55553 | -69.59103 | 31982 ft | 479 kts | 318° |
| 2026-05-07 09:09 | 15.60215 | -69.64066 | 31978 ft | 479 kts | 317° |
| 2026-05-07 09:10 | 15.64873 | -69.69044 | 31980 ft | 480 kts | 317° |
| 2026-05-07 09:10 | 15.69516 | -69.74007 | 31979 ft | 479 kts | 317° |
| 2026-05-07 09:11 | 15.74165 | -69.78979 | 31978 ft | 481 kts | 317° |
| 2026-05-07 09:11 | 15.78834 | -69.83975 | 31980 ft | 480 kts | 317° |
| 2026-05-07 09:12 | 15.83483 | -69.88953 | 31979 ft | 481 kts | 317° |
| 2026-05-07 09:12 | 15.88135 | -69.93938 | 31981 ft | 481 kts | 317° |
| 2026-05-07 09:13 | 15.92797 | -69.98937 | 31983 ft | 481 kts | 317° |
| 2026-05-07 09:13 | 15.97454 | -70.03934 | 31981 ft | 481 kts | 317° |
| 2026-05-07 09:14 | 16.02478 | -70.08433 | 31982 ft | 477 kts | 328° |
| 2026-05-07 09:14 | 16.07952 | -70.12332 | 31980 ft | 476 kts | 328° |
| 2026-05-07 09:15 | 16.13491 | -70.16268 | 31990 ft | 475 kts | 329° |
| 2026-05-07 09:15 | 16.18951 | -70.20153 | 31990 ft | 475 kts | 328° |
| 2026-05-07 09:16 | 16.24396 | -70.24030 | 31991 ft | 475 kts | 328° |
| 2026-05-07 09:16 | 16.29862 | -70.27927 | 31995 ft | 473 kts | 329° |
| 2026-05-07 09:17 | 16.35311 | -70.31815 | 31989 ft | 474 kts | 328° |
| 2026-05-07 09:17 | 16.40777 | -70.35717 | 31987 ft | 475 kts | 329° |
| 2026-05-07 09:18 | 16.46235 | -70.39617 | 31979 ft | 473 kts | 329° |
| 2026-05-07 09:18 | 16.51662 | -70.43497 | 31981 ft | 472 kts | 329° |
| 2026-05-07 09:19 | 16.57107 | -70.47392 | 31978 ft | 474 kts | 328° |
| 2026-05-07 09:19 | 16.62522 | -70.51269 | 31977 ft | 472 kts | 329° |
| 2026-05-07 09:20 | 16.67945 | -70.55154 | 31973 ft | 474 kts | 329° |
| 2026-05-07 09:20 | 16.73377 | -70.59050 | 31977 ft | 473 kts | 329° |
| 2026-05-07 09:21 | 16.78839 | -70.62968 | 31972 ft | 474 kts | 329° |
| 2026-05-07 09:21 | 16.84255 | -70.66857 | 31970 ft | 473 kts | 328° |
| 2026-05-07 09:22 | 16.89691 | -70.70763 | 31970 ft | 475 kts | 329° |
| 2026-05-07 09:22 | 16.95126 | -70.74670 | 31967 ft | 473 kts | 329° |
| 2026-05-07 09:23 | 17.00587 | -70.78600 | 31963 ft | 474 kts | 329° |
| 2026-05-07 09:23 | 17.06022 | -70.82513 | 31961 ft | 473 kts | 329° |
| 2026-05-07 09:24 | 17.11456 | -70.86427 | 31974 ft | 475 kts | 329° |
| 2026-05-07 09:24 | 17.16962 | -70.90392 | 31980 ft | 473 kts | 329° |
| 2026-05-07 09:25 | 17.22373 | -70.94292 | 31981 ft | 472 kts | 329° |
| 2026-05-07 09:25 | 17.27833 | -70.98230 | 31982 ft | 473 kts | 329° |
| 2026-05-07 09:26 | 17.33259 | -71.02145 | 31987 ft | 474 kts | 329° |
| 2026-05-07 09:26 | 17.38682 | -71.06062 | 31988 ft | 474 kts | 329° |
| 2026-05-07 09:27 | 17.44136 | -71.10004 | 31983 ft | 474 kts | 329° |
| 2026-05-07 09:28 | 17.52274 | -71.15891 | 31991 ft | 474 kts | 329° |
| 2026-05-07 09:28 | 17.57709 | -71.19826 | 31995 ft | 474 kts | 329° |
| 2026-05-07 09:29 | 17.63139 | -71.23761 | 31992 ft | 474 kts | 329° |
| 2026-05-07 09:29 | 17.68560 | -71.27692 | 31993 ft | 475 kts | 329° |
| 2026-05-07 09:30 | 17.74002 | -71.31641 | 31995 ft | 475 kts | 329° |
| 2026-05-07 09:30 | 17.79442 | -71.35593 | 32008 ft | 473 kts | 329° |
| 2026-05-07 09:31 | 17.84878 | -71.39543 | 32026 ft | 475 kts | 329° |
| 2026-05-07 09:31 | 17.90345 | -71.43520 | 32038 ft | 474 kts | 329° |
| 2026-05-07 09:32 | 17.95743 | -71.47449 | 32051 ft | 473 kts | 329° |
| 2026-05-07 09:32 | 18.01171 | -71.51403 | 32066 ft | 473 kts | 329° |
| 2026-05-07 09:33 | 18.06620 | -71.55375 | 32070 ft | 475 kts | 329° |
| 2026-05-07 09:33 | 18.12085 | -71.59363 | 32096 ft | 474 kts | 329° |
| 2026-05-07 09:34 | 18.17537 | -71.63344 | 32129 ft | 473 kts | 329° |
| 2026-05-07 09:34 | 18.22940 | -71.67291 | 32156 ft | 474 kts | 328° |
| 2026-05-07 09:35 | 18.28397 | -71.71281 | 32176 ft | 474 kts | 328° |
| 2026-05-07 09:35 | 18.33809 | -71.75243 | 32139 ft | 474 kts | 328° |
| 2026-05-07 09:36 | 18.39282 | -71.79251 | 32098 ft | 475 kts | 329° |
| 2026-05-07 09:36 | 18.44677 | -71.83205 | 32060 ft | 475 kts | 328° |
| 2026-05-07 09:37 | 18.50134 | -71.87209 | 32032 ft | 475 kts | 328° |
| 2026-05-07 09:37 | 18.55773 | -71.90741 | 32038 ft | 472 kts | 334° |
| 2026-05-07 09:38 | 18.61536 | -71.94083 | 32054 ft | 472 kts | 334° |
| 2026-05-07 09:38 | 18.67318 | -71.97443 | 32060 ft | 472 kts | 334° |
| 2026-05-07 09:39 | 18.73089 | -72.00802 | 32057 ft | 473 kts | 334° |
| 2026-05-07 09:39 | 18.78826 | -72.04145 | 32070 ft | 473 kts | 334° |
| 2026-05-07 09:40 | 18.84613 | -72.07520 | 32064 ft | 471 kts | 334° |
| 2026-05-07 09:40 | 18.90340 | -72.10864 | 32068 ft | 471 kts | 334° |
| 2026-05-07 09:41 | 18.96108 | -72.14234 | 32075 ft | 472 kts | 334° |
| 2026-05-07 09:41 | 19.01894 | -72.17619 | 32077 ft | 473 kts | 334° |
| 2026-05-07 09:42 | 19.07647 | -72.20986 | 32070 ft | 472 kts | 334° |
| 2026-05-07 09:42 | 19.13423 | -72.24369 | 32077 ft | 473 kts | 334° |
| 2026-05-07 09:43 | 19.19180 | -72.27744 | 32060 ft | 474 kts | 334° |
| 2026-05-07 09:43 | 19.24968 | -72.31141 | 32041 ft | 473 kts | 334° |
| 2026-05-07 09:44 | 19.30733 | -72.34527 | 32035 ft | 474 kts | 334° |
| 2026-05-07 09:44 | 19.36478 | -72.37904 | 32035 ft | 473 kts | 334° |
| 2026-05-07 09:45 | 19.42258 | -72.41303 | 32034 ft | 473 kts | 334° |
| 2026-05-07 09:45 | 19.48059 | -72.44717 | 32034 ft | 475 kts | 334° |
| 2026-05-07 09:46 | 19.53831 | -72.48119 | 32040 ft | 473 kts | 334° |
| 2026-05-07 09:46 | 19.59602 | -72.51522 | 32036 ft | 473 kts | 334° |
| 2026-05-07 09:47 | 19.65362 | -72.54921 | 32041 ft | 474 kts | 333° |
| 2026-05-07 09:47 | 19.71134 | -72.58330 | 32035 ft | 474 kts | 333° |
| 2026-05-07 09:48 | 19.76890 | -72.61732 | 32031 ft | 474 kts | 333° |
| 2026-05-07 09:48 | 19.82706 | -72.65173 | 32018 ft | 474 kts | 333° |
| 2026-05-07 09:49 | 19.88454 | -72.68576 | 32005 ft | 475 kts | 333° |
| 2026-05-07 09:49 | 19.94247 | -72.72008 | 31994 ft | 474 kts | 333° |
| 2026-05-07 09:50 | 19.99917 | -72.75370 | 31987 ft | 475 kts | 333° |
| 2026-05-07 09:50 | 20.05622 | -72.78891 | 31982 ft | 475 kts | 332° |
| 2026-05-07 09:51 | 20.11359 | -72.82483 | 32102 ft | 479 kts | 332° |
| 2026-05-07 09:51 | 20.14245 | -72.84290 | 32521 ft | 475 kts | 332° |
| 2026-05-07 09:51 | 20.17068 | -72.86056 | 33046 ft | 471 kts | 332° |
| 2026-05-07 09:51 | 20.19891 | -72.87824 | 33573 ft | 467 kts | 332° |
| 2026-05-07 09:52 | 20.22665 | -72.89559 | 33974 ft | 466 kts | 332° |
| 2026-05-07 09:52 | 20.28288 | -72.93079 | 33995 ft | 466 kts | 332° |
| 2026-05-07 09:53 | 20.33873 | -72.96575 | 33997 ft | 466 kts | 332° |
| 2026-05-07 09:53 | 20.39425 | -73.00214 | 33997 ft | 469 kts | 326° |
| 2026-05-07 09:54 | 20.44161 | -73.05035 | 34010 ft | 474 kts | 315° |
| 2026-05-07 09:54 | 20.48534 | -73.10281 | 34008 ft | 474 kts | 315° |
| 2026-05-07 09:55 | 20.52917 | -73.15549 | 34007 ft | 475 kts | 315° |
| 2026-05-07 09:55 | 20.57277 | -73.20795 | 34006 ft | 474 kts | 315° |
| 2026-05-07 09:56 | 20.61673 | -73.26086 | 34006 ft | 474 kts | 315° |
| 2026-05-07 09:56 | 20.66038 | -73.31346 | 34005 ft | 475 kts | 315° |
| 2026-05-07 09:57 | 20.70420 | -73.36631 | 34005 ft | 474 kts | 315° |
| 2026-05-07 09:57 | 20.74760 | -73.41869 | 34005 ft | 475 kts | 315° |
| 2026-05-07 09:58 | 20.79157 | -73.47183 | 34003 ft | 475 kts | 315° |
| 2026-05-07 09:58 | 20.83510 | -73.52447 | 34004 ft | 474 kts | 315° |
| 2026-05-07 09:59 | 20.87894 | -73.57755 | 34003 ft | 475 kts | 315° |
| 2026-05-07 09:59 | 20.92239 | -73.63020 | 34002 ft | 474 kts | 315° |
| 2026-05-07 10:00 | 20.96865 | -73.68008 | 34004 ft | 470 kts | 324° |
| 2026-05-07 10:00 | 21.02321 | -73.71814 | 34001 ft | 468 kts | 330° |
| 2026-05-07 10:01 | 21.07885 | -73.75449 | 34002 ft | 468 kts | 330° |
| 2026-05-07 10:01 | 21.13469 | -73.79105 | 34013 ft | 468 kts | 330° |
| 2026-05-07 10:02 | 21.19013 | -73.82739 | 34013 ft | 469 kts | 330° |
| 2026-05-07 10:02 | 21.24572 | -73.86388 | 34013 ft | 468 kts | 330° |
| 2026-05-07 10:03 | 21.30124 | -73.90036 | 34010 ft | 468 kts | 330° |
| 2026-05-07 10:03 | 21.35669 | -73.93684 | 34009 ft | 467 kts | 330° |
| 2026-05-07 10:04 | 21.41212 | -73.97333 | 34008 ft | 467 kts | 330° |
| 2026-05-07 10:04 | 21.46754 | -74.00985 | 34009 ft | 467 kts | 330° |
| 2026-05-07 10:05 | 21.52302 | -74.04644 | 34008 ft | 468 kts | 330° |
| 2026-05-07 10:05 | 21.57871 | -74.08321 | 34007 ft | 468 kts | 330° |
| 2026-05-07 10:06 | 21.63420 | -74.11988 | 34006 ft | 467 kts | 330° |
| 2026-05-07 10:06 | 21.68933 | -74.15634 | 34006 ft | 467 kts | 330° |
| 2026-05-07 10:07 | 21.74477 | -74.19305 | 34003 ft | 468 kts | 330° |
| 2026-05-07 10:07 | 21.80023 | -74.22979 | 34002 ft | 468 kts | 330° |
| 2026-05-07 10:08 | 21.85556 | -74.26650 | 34005 ft | 467 kts | 330° |
| 2026-05-07 10:08 | 21.91118 | -74.30342 | 34003 ft | 467 kts | 330° |
| 2026-05-07 10:09 | 21.96629 | -74.34003 | 34004 ft | 468 kts | 330° |
| 2026-05-07 10:09 | 22.02177 | -74.37693 | 34002 ft | 468 kts | 330° |
| 2026-05-07 10:10 | 22.07751 | -74.41404 | 34003 ft | 468 kts | 330° |
| 2026-05-07 10:10 | 22.13287 | -74.45093 | 34011 ft | 468 kts | 330° |
| 2026-05-07 10:11 | 22.18851 | -74.48804 | 34013 ft | 468 kts | 330° |
| 2026-05-07 10:11 | 22.24355 | -74.52478 | 34015 ft | 468 kts | 330° |
| 2026-05-07 10:12 | 22.29936 | -74.56207 | 34018 ft | 468 kts | 329° |
| 2026-05-07 10:12 | 22.35480 | -74.59915 | 34021 ft | 469 kts | 329° |
| 2026-05-07 10:13 | 22.41010 | -74.63618 | 34021 ft | 468 kts | 329° |
| 2026-05-07 10:13 | 22.46563 | -74.67339 | 34022 ft | 469 kts | 329° |
| 2026-05-07 10:14 | 22.52098 | -74.71051 | 34026 ft | 468 kts | 329° |
| 2026-05-07 10:14 | 22.57642 | -74.74773 | 34028 ft | 470 kts | 329° |
| 2026-05-07 10:15 | 22.63203 | -74.78510 | 34028 ft | 469 kts | 329° |
| 2026-05-07 10:15 | 22.68758 | -74.82247 | 34028 ft | 470 kts | 329° |
| 2026-05-07 10:16 | 22.74298 | -74.85977 | 34027 ft | 470 kts | 329° |
| 2026-05-07 10:16 | 22.79850 | -74.89719 | 34026 ft | 470 kts | 329° |
| 2026-05-07 10:17 | 22.85418 | -74.93475 | 34025 ft | 471 kts | 329° |
| 2026-05-07 10:17 | 22.90965 | -74.97222 | 34024 ft | 469 kts | 329° |
| 2026-05-07 10:18 | 22.96510 | -75.00970 | 34023 ft | 470 kts | 329° |
| 2026-05-07 10:18 | 23.02049 | -75.04717 | 34022 ft | 470 kts | 329° |
| 2026-05-07 10:19 | 23.07623 | -75.08493 | 34022 ft | 470 kts | 329° |
| 2026-05-07 10:19 | 23.13162 | -75.12288 | 34031 ft | 471 kts | 328° |
| 2026-05-07 10:20 | 23.18718 | -75.16132 | 34031 ft | 471 kts | 328° |
| 2026-05-07 10:20 | 23.24220 | -75.19939 | 34030 ft | 469 kts | 328° |
| 2026-05-07 10:21 | 23.29728 | -75.23753 | 34029 ft | 471 kts | 328° |
| 2026-05-07 10:21 | 23.35265 | -75.27590 | 34029 ft | 470 kts | 328° |
| 2026-05-07 10:22 | 23.40774 | -75.31412 | 34028 ft | 471 kts | 328° |
| 2026-05-07 10:22 | 23.46326 | -75.35267 | 34028 ft | 470 kts | 328° |
| 2026-05-07 10:23 | 23.51848 | -75.39105 | 34027 ft | 470 kts | 328° |
| 2026-05-07 10:23 | 23.57352 | -75.42933 | 34027 ft | 470 kts | 328° |
| 2026-05-07 10:24 | 23.62859 | -75.46768 | 34026 ft | 470 kts | 328° |
| 2026-05-07 10:24 | 23.68386 | -75.50621 | 34026 ft | 471 kts | 328° |
| 2026-05-07 10:25 | 23.73880 | -75.54454 | 34025 ft | 469 kts | 328° |
| 2026-05-07 10:25 | 23.79412 | -75.58318 | 34024 ft | 470 kts | 328° |
| 2026-05-07 10:26 | 23.84884 | -75.62144 | 34023 ft | 469 kts | 328° |
| 2026-05-07 10:26 | 23.90419 | -75.66019 | 34026 ft | 470 kts | 327° |
| 2026-05-07 10:27 | 23.95905 | -75.69862 | 34026 ft | 470 kts | 327° |
| 2026-05-07 10:27 | 24.01418 | -75.73729 | 34026 ft | 470 kts | 327° |
| 2026-05-07 10:28 | 24.06922 | -75.77593 | 34025 ft | 469 kts | 327° |
| 2026-05-07 10:28 | 24.12430 | -75.81464 | 34034 ft | 470 kts | 327° |
| 2026-05-07 10:29 | 24.17927 | -75.85332 | 34031 ft | 471 kts | 327° |
| 2026-05-07 10:29 | 24.23446 | -75.89219 | 34032 ft | 470 kts | 327° |
| 2026-05-07 10:30 | 24.31697 | -75.95037 | 34032 ft | 470 kts | 327° |
| 2026-05-07 10:30 | 24.37182 | -75.98910 | 34033 ft | 470 kts | 327° |
| 2026-05-07 10:31 | 24.42675 | -76.02793 | 34038 ft | 470 kts | 327° |
| 2026-05-07 10:31 | 24.48174 | -76.06684 | 34037 ft | 470 kts | 327° |
| 2026-05-07 10:32 | 24.53676 | -76.10581 | 34038 ft | 471 kts | 327° |
| 2026-05-07 10:32 | 24.59194 | -76.14489 | 34037 ft | 470 kts | 327° |
| 2026-05-07 10:33 | 24.64680 | -76.18340 | 34037 ft | 469 kts | 327° |
| 2026-05-07 10:33 | 24.70192 | -76.22213 | 34037 ft | 470 kts | 327° |
| 2026-05-07 10:34 | 24.75724 | -76.26106 | 34036 ft | 469 kts | 327° |
| 2026-05-07 10:34 | 24.81206 | -76.29967 | 34037 ft | 470 kts | 327° |
| 2026-05-07 10:35 | 24.86705 | -76.33846 | 34033 ft | 470 kts | 327° |
| 2026-05-07 10:35 | 24.92231 | -76.37748 | 34034 ft | 469 kts | 327° |
| 2026-05-07 10:36 | 24.97708 | -76.41620 | 34034 ft | 470 kts | 327° |
| 2026-05-07 10:36 | 25.03237 | -76.45532 | 34034 ft | 470 kts | 327° |
| 2026-05-07 10:37 | 25.08725 | -76.49419 | 34031 ft | 470 kts | 327° |
| 2026-05-07 10:37 | 25.14240 | -76.53331 | 34044 ft | 470 kts | 327° |
| 2026-05-07 10:38 | 25.19712 | -76.57216 | 34048 ft | 468 kts | 327° |
| 2026-05-07 10:38 | 25.25212 | -76.61125 | 34048 ft | 469 kts | 327° |
| 2026-05-07 10:39 | 25.30699 | -76.65029 | 34047 ft | 468 kts | 326° |
| 2026-05-07 10:39 | 25.36157 | -76.68916 | 34053 ft | 469 kts | 326° |
| 2026-05-07 10:40 | 25.41654 | -76.72836 | 34053 ft | 468 kts | 326° |
| 2026-05-07 10:40 | 25.47128 | -76.76744 | 34051 ft | 469 kts | 326° |
| 2026-05-07 10:41 | 25.52616 | -76.80666 | 34050 ft | 468 kts | 326° |
| 2026-05-07 10:41 | 25.58077 | -76.84573 | 34050 ft | 468 kts | 326° |
| 2026-05-07 10:42 | 25.63552 | -76.88494 | 34049 ft | 468 kts | 326° |
| 2026-05-07 10:42 | 25.69015 | -76.92411 | 34048 ft | 468 kts | 326° |
| 2026-05-07 10:43 | 25.74472 | -76.96328 | 34047 ft | 467 kts | 326° |
| 2026-05-07 10:43 | 25.79926 | -77.00247 | 34046 ft | 467 kts | 326° |
| 2026-05-07 10:44 | 25.85402 | -77.04187 | 34045 ft | 468 kts | 326° |
| 2026-05-07 10:44 | 25.90840 | -77.08103 | 34045 ft | 467 kts | 326° |
| 2026-05-07 10:45 | 25.96310 | -77.12047 | 34045 ft | 468 kts | 326° |
| 2026-05-07 10:45 | 26.01753 | -77.15976 | 34044 ft | 467 kts | 326° |
| 2026-05-07 10:46 | 26.07214 | -77.19922 | 34044 ft | 466 kts | 326° |
| 2026-05-07 10:46 | 26.12651 | -77.23856 | 34051 ft | 467 kts | 326° |
| 2026-05-07 10:47 | 26.18093 | -77.27797 | 34050 ft | 466 kts | 325° |
| 2026-05-07 10:47 | 26.23536 | -77.31744 | 34048 ft | 466 kts | 325° |
| 2026-05-07 10:48 | 26.28956 | -77.35678 | 34049 ft | 466 kts | 325° |
| 2026-05-07 10:48 | 26.34389 | -77.39626 | 34047 ft | 466 kts | 325° |
| 2026-05-07 10:49 | 26.39813 | -77.43572 | 34047 ft | 465 kts | 325° |
| 2026-05-07 10:49 | 26.45249 | -77.47532 | 34047 ft | 466 kts | 325° |
| 2026-05-07 10:50 | 26.50656 | -77.51475 | 34046 ft | 465 kts | 325° |
| 2026-05-07 10:50 | 26.56067 | -77.55425 | 34045 ft | 465 kts | 325° |
| 2026-05-07 10:51 | 26.61460 | -77.59367 | 34043 ft | 465 kts | 325° |
| 2026-05-07 10:51 | 26.66866 | -77.63322 | 34042 ft | 464 kts | 325° |
| 2026-05-07 10:52 | 26.72260 | -77.67274 | 34051 ft | 464 kts | 324° |
| 2026-05-07 10:52 | 26.77667 | -77.71240 | 34054 ft | 463 kts | 324° |
| 2026-05-07 10:53 | 26.83047 | -77.75190 | 34052 ft | 463 kts | 324° |
| 2026-05-07 10:53 | 26.88446 | -77.79159 | 34050 ft | 463 kts | 324° |
| 2026-05-07 10:54 | 26.93825 | -77.83117 | 34048 ft | 462 kts | 324° |
| 2026-05-07 10:54 | 26.99188 | -77.87069 | 34049 ft | 463 kts | 324° |
| 2026-05-07 10:55 | 27.04565 | -77.91035 | 34047 ft | 461 kts | 324° |
| 2026-05-07 10:55 | 27.09899 | -77.94974 | 34047 ft | 461 kts | 324° |
| 2026-05-07 10:56 | 27.15281 | -77.98954 | 34049 ft | 461 kts | 324° |
| 2026-05-07 10:56 | 27.20641 | -78.02922 | 34051 ft | 461 kts | 324° |
| 2026-05-07 10:57 | 27.25979 | -78.06877 | 34050 ft | 461 kts | 324° |
| 2026-05-07 10:57 | 27.31295 | -78.10916 | 34047 ft | 460 kts | 320° |
| 2026-05-07 10:58 | 27.35740 | -78.16008 | 34048 ft | 456 kts | 306° |
| 2026-05-07 10:58 | 27.39326 | -78.21932 | 34047 ft | 457 kts | 303° |
| 2026-05-07 10:59 | 27.42831 | -78.27854 | 34046 ft | 457 kts | 303° |
| 2026-05-07 10:59 | 27.46324 | -78.33783 | 34044 ft | 456 kts | 303° |
| 2026-05-07 11:00 | 27.49829 | -78.39751 | 34040 ft | 456 kts | 303° |
| 2026-05-07 11:00 | 27.53311 | -78.45693 | 34038 ft | 456 kts | 303° |
| 2026-05-07 11:01 | 27.56802 | -78.51661 | 34036 ft | 455 kts | 303° |
| 2026-05-07 11:01 | 27.60286 | -78.57627 | 34035 ft | 456 kts | 303° |
| 2026-05-07 11:02 | 27.63763 | -78.63590 | 34034 ft | 456 kts | 303° |
| 2026-05-07 11:02 | 27.67338 | -78.69496 | 34041 ft | 456 kts | 304° |
| 2026-05-07 11:03 | 27.70963 | -78.75359 | 34038 ft | 457 kts | 304° |
| 2026-05-07 11:03 | 27.74593 | -78.81249 | 34037 ft | 456 kts | 304° |
| 2026-05-07 11:04 | 27.78197 | -78.87112 | 34036 ft | 456 kts | 304° |
| 2026-05-07 11:04 | 27.81801 | -78.92986 | 34032 ft | 456 kts | 304° |
| 2026-05-07 11:05 | 27.85406 | -78.98874 | 34032 ft | 455 kts | 304° |
| 2026-05-07 11:05 | 27.88988 | -79.04732 | 34027 ft | 455 kts | 304° |
| 2026-05-07 11:06 | 27.92587 | -79.10626 | 34024 ft | 455 kts | 304° |
| 2026-05-07 11:06 | 27.96195 | -79.16544 | 34024 ft | 455 kts | 304° |
| 2026-05-07 11:07 | 27.99774 | -79.22420 | 34023 ft | 457 kts | 304° |
| 2026-05-07 11:07 | 28.03382 | -79.28355 | 34022 ft | 455 kts | 304° |
| 2026-05-07 11:08 | 28.06960 | -79.34249 | 34021 ft | 456 kts | 304° |
| 2026-05-07 11:08 | 28.10549 | -79.40168 | 34022 ft | 456 kts | 303° |
| 2026-05-07 11:09 | 28.14120 | -79.46066 | 34025 ft | 454 kts | 303° |
| 2026-05-07 11:09 | 28.17687 | -79.51965 | 34024 ft | 454 kts | 303° |
| 2026-05-07 11:10 | 28.21250 | -79.57865 | 34024 ft | 454 kts | 303° |
| 2026-05-07 11:10 | 28.24800 | -79.63753 | 34023 ft | 455 kts | 303° |
| 2026-05-07 11:11 | 28.28376 | -79.69691 | 34033 ft | 454 kts | 303° |
| 2026-05-07 11:11 | 28.31938 | -79.75615 | 34032 ft | 455 kts | 303° |
| 2026-05-07 11:12 | 28.35485 | -79.81521 | 34031 ft | 455 kts | 303° |
| 2026-05-07 11:12 | 28.39047 | -79.87460 | 34027 ft | 455 kts | 303° |
| 2026-05-07 11:13 | 28.42595 | -79.93385 | 34030 ft | 452 kts | 303° |
| 2026-05-07 11:13 | 28.46129 | -79.99295 | 34028 ft | 454 kts | 303° |
| 2026-05-07 11:14 | 28.49661 | -80.05210 | 34027 ft | 453 kts | 303° |
| 2026-05-07 11:14 | 28.53202 | -80.11149 | 34026 ft | 453 kts | 303° |
| 2026-05-07 11:15 | 28.56728 | -80.17069 | 34024 ft | 453 kts | 303° |
| 2026-05-07 11:15 | 28.60253 | -80.22997 | 34022 ft | 453 kts | 302° |
| 2026-05-07 11:16 | 28.63778 | -80.28931 | 34020 ft | 452 kts | 302° |
| 2026-05-07 11:16 | 28.67289 | -80.34853 | 34019 ft | 453 kts | 302° |
| 2026-05-07 11:17 | 28.70804 | -80.40790 | 34017 ft | 452 kts | 302° |
| 2026-05-07 11:17 | 28.74306 | -80.46774 | 34016 ft | 452 kts | 302° |
| 2026-05-07 11:18 | 28.77776 | -80.52727 | 34014 ft | 452 kts | 302° |
| 2026-05-07 11:18 | 28.81250 | -80.58691 | 34020 ft | 452 kts | 302° |
| 2026-05-07 11:19 | 28.85068 | -80.64404 | 34016 ft | 455 kts | 312° |
| 2026-05-07 11:19 | 28.90076 | -80.68881 | 34033 ft | 463 kts | 326° |
| 2026-05-07 11:20 | 28.95983 | -80.71948 | 34028 ft | 466 kts | 333° |
| 2026-05-07 11:20 | 29.02013 | -80.74740 | 34029 ft | 467 kts | 333° |
| 2026-05-07 11:21 | 29.08037 | -80.77541 | 34035 ft | 468 kts | 333° |
| 2026-05-07 11:21 | 29.14029 | -80.80334 | 34035 ft | 468 kts | 333° |
| 2026-05-07 11:22 | 29.20051 | -80.83147 | 34031 ft | 467 kts | 333° |
| 2026-05-07 11:22 | 29.26107 | -80.85981 | 34037 ft | 468 kts | 332° |
| 2026-05-07 11:23 | 29.32092 | -80.88786 | 34034 ft | 466 kts | 332° |
| 2026-05-07 11:23 | 29.38108 | -80.91611 | 34033 ft | 468 kts | 332° |
| 2026-05-07 11:24 | 29.44136 | -80.94443 | 34025 ft | 466 kts | 332° |
| 2026-05-07 11:24 | 29.50167 | -80.97282 | 34025 ft | 468 kts | 332° |
| 2026-05-07 11:25 | 29.56155 | -81.00104 | 34014 ft | 466 kts | 332° |
| 2026-05-07 11:25 | 29.62176 | -81.02946 | 34011 ft | 467 kts | 332° |
| 2026-05-07 11:26 | 29.68176 | -81.05780 | 34000 ft | 467 kts | 332° |
| 2026-05-07 11:26 | 29.74201 | -81.08630 | 33988 ft | 466 kts | 332° |
| 2026-05-07 11:27 | 29.80214 | -81.11500 | 33990 ft | 465 kts | 329° |
| 2026-05-07 11:27 | 29.85690 | -81.15306 | 33991 ft | 457 kts | 321° |
| 2026-05-07 11:28 | 29.90909 | -81.19445 | 33999 ft | 456 kts | 320° |
| 2026-05-07 11:28 | 29.96138 | -81.23600 | 34000 ft | 459 kts | 320° |
| 2026-05-07 11:29 | 30.01367 | -81.27759 | 33997 ft | 458 kts | 320° |
| 2026-05-07 11:29 | 30.06622 | -81.31944 | 33996 ft | 457 kts | 320° |
| 2026-05-07 11:30 | 30.11834 | -81.36101 | 34000 ft | 457 kts | 320° |
| 2026-05-07 11:30 | 30.17066 | -81.40279 | 33998 ft | 456 kts | 320° |
| 2026-05-07 11:31 | 30.22299 | -81.44464 | 33997 ft | 458 kts | 320° |
| 2026-05-07 11:31 | 30.27531 | -81.48653 | 33997 ft | 457 kts | 320° |
| 2026-05-07 11:32 | 30.35368 | -81.54939 | 33995 ft | 457 kts | 320° |
| 2026-05-07 11:33 | 30.40571 | -81.59118 | 33998 ft | 457 kts | 320° |
| 2026-05-07 11:33 | 30.45796 | -81.63320 | 33997 ft | 455 kts | 320° |
| 2026-05-07 11:34 | 30.51031 | -81.67538 | 34009 ft | 457 kts | 320° |
| 2026-05-07 11:34 | 30.56232 | -81.71732 | 34008 ft | 457 kts | 320° |
| 2026-05-07 11:35 | 30.61678 | -81.75597 | 34013 ft | 465 kts | 329° |
| 2026-05-07 11:35 | 30.67949 | -81.77814 | 34008 ft | 476 kts | 343° |
| 2026-05-07 11:36 | 30.74519 | -81.79118 | 34010 ft | 480 kts | 343° |
| 2026-05-07 11:36 | 30.81072 | -81.80412 | 34011 ft | 477 kts | 343° |
| 2026-05-07 11:37 | 30.87638 | -81.81721 | 34012 ft | 478 kts | 343° |
| 2026-05-07 11:37 | 30.94203 | -81.83033 | 34012 ft | 477 kts | 343° |
| 2026-05-07 11:38 | 31.00739 | -81.84345 | 34009 ft | 479 kts | 343° |
| 2026-05-07 11:38 | 31.07332 | -81.85671 | 34007 ft | 478 kts | 343° |
| 2026-05-07 11:39 | 31.13905 | -81.86996 | 34009 ft | 480 kts | 343° |
| 2026-05-07 11:39 | 31.20485 | -81.88325 | 34006 ft | 481 kts | 343° |
| 2026-05-07 11:40 | 31.27091 | -81.89659 | 34005 ft | 479 kts | 343° |
| 2026-05-07 11:40 | 31.33678 | -81.90994 | 34000 ft | 481 kts | 343° |
| 2026-05-07 11:41 | 31.40288 | -81.92334 | 33998 ft | 483 kts | 343° |
| 2026-05-07 11:41 | 31.46874 | -81.93671 | 34003 ft | 482 kts | 343° |
| 2026-05-07 11:42 | 31.53478 | -81.95013 | 34004 ft | 482 kts | 343° |
| 2026-05-07 11:42 | 31.60110 | -81.96364 | 34004 ft | 482 kts | 343° |
| 2026-05-07 11:43 | 31.66775 | -81.97723 | 33997 ft | 483 kts | 343° |
| 2026-05-07 11:43 | 31.73369 | -81.99069 | 33996 ft | 485 kts | 343° |
| 2026-05-07 11:44 | 31.80024 | -82.00431 | 33992 ft | 485 kts | 343° |
| 2026-05-07 11:44 | 31.86720 | -82.01721 | 33987 ft | 490 kts | 347° |
| 2026-05-07 11:45 | 31.93581 | -82.02054 | 33986 ft | 494 kts | 351° |
| 2026-05-07 11:45 | 32.00456 | -82.02281 | 33987 ft | 496 kts | 351° |
| 2026-05-07 11:46 | 32.07352 | -82.02512 | 33988 ft | 494 kts | 351° |
| 2026-05-07 11:46 | 32.14230 | -82.02747 | 33992 ft | 497 kts | 351° |
| 2026-05-07 11:47 | 32.21111 | -82.02982 | 33983 ft | 494 kts | 351° |
| 2026-05-07 11:47 | 32.27981 | -82.03220 | 33984 ft | 495 kts | 351° |
| 2026-05-07 11:48 | 32.34880 | -82.03459 | 33974 ft | 496 kts | 351° |
| 2026-05-07 11:48 | 32.41790 | -82.03699 | 33962 ft | 496 kts | 351° |
| 2026-05-07 11:49 | 32.48676 | -82.03982 | 33954 ft | 495 kts | 349° |
| 2026-05-07 11:49 | 32.55581 | -82.04436 | 33953 ft | 495 kts | 349° |
| 2026-05-07 11:50 | 32.62444 | -82.04882 | 33948 ft | 494 kts | 348° |
| 2026-05-07 11:50 | 32.69315 | -82.05327 | 33943 ft | 495 kts | 349° |
| 2026-05-07 11:51 | 32.76233 | -82.05772 | 33950 ft | 496 kts | 349° |
| 2026-05-07 11:51 | 32.83105 | -82.06210 | 33946 ft | 493 kts | 348° |
| 2026-05-07 11:52 | 32.90005 | -82.06653 | 33941 ft | 495 kts | 348° |
| 2026-05-07 11:52 | 32.96883 | -82.07094 | 33937 ft | 496 kts | 348° |
| 2026-05-07 11:53 | 33.03827 | -82.07539 | 33929 ft | 497 kts | 348° |
| 2026-05-07 11:53 | 33.10702 | -82.07980 | 33899 ft | 497 kts | 348° |
| 2026-05-07 11:54 | 33.17659 | -82.08429 | 33902 ft | 502 kts | 348° |
| 2026-05-07 11:54 | 33.24646 | -82.08879 | 33905 ft | 504 kts | 348° |
| 2026-05-07 11:55 | 33.31627 | -82.09328 | 33923 ft | 503 kts | 348° |
| 2026-05-07 11:55 | 33.38685 | -82.09785 | 33903 ft | 508 kts | 348° |
| 2026-05-07 11:56 | 33.45763 | -82.10244 | 33905 ft | 510 kts | 348° |
| 2026-05-07 11:56 | 33.52832 | -82.10701 | 33899 ft | 510 kts | 348° |
| 2026-05-07 11:57 | 33.59924 | -82.11348 | 33893 ft | 506 kts | 341° |
| 2026-05-07 11:57 | 33.63289 | -82.12336 | 33899 ft | 493 kts | 333° |
| 2026-05-07 11:57 | 33.66447 | -82.13839 | 33899 ft | 486 kts | 326° |
| 2026-05-07 11:58 | 33.72439 | -82.17503 | 33895 ft | 479 kts | 319° |
| 2026-05-07 11:58 | 33.78048 | -82.21781 | 33884 ft | 474 kts | 319° |
| 2026-05-07 11:59 | 33.83633 | -82.26067 | 33886 ft | 478 kts | 319° |
| 2026-05-07 11:59 | 33.89207 | -82.30346 | 33885 ft | 478 kts | 319° |
| 2026-05-07 12:00 | 33.94818 | -82.34662 | 33880 ft | 484 kts | 319° |
| 2026-05-07 12:00 | 34.00469 | -82.39007 | 33886 ft | 477 kts | 319° |
| 2026-05-07 12:01 | 34.06098 | -82.43349 | 33879 ft | 481 kts | 319° |
| 2026-05-07 12:01 | 34.11671 | -82.47648 | 33876 ft | 476 kts | 318° |
| 2026-05-07 12:02 | 34.17265 | -82.51975 | 33872 ft | 479 kts | 318° |
| 2026-05-07 12:02 | 34.22897 | -82.56337 | 33874 ft | 478 kts | 318° |
| 2026-05-07 12:03 | 34.28453 | -82.60644 | 33890 ft | 476 kts | 318° |
| 2026-05-07 12:03 | 34.34054 | -82.65000 | 33894 ft | 481 kts | 317° |
| 2026-05-07 12:04 | 34.39630 | -82.69333 | 33920 ft | 470 kts | 317° |
| 2026-05-07 12:04 | 34.45123 | -82.73618 | 33926 ft | 475 kts | 316° |
| 2026-05-07 12:05 | 34.50661 | -82.77941 | 33924 ft | 474 kts | 316° |
| 2026-05-07 12:05 | 34.56213 | -82.82284 | 33917 ft | 475 kts | 316° |
| 2026-05-07 12:06 | 34.61736 | -82.86607 | 33920 ft | 471 kts | 316° |
| 2026-05-07 12:06 | 34.67216 | -82.90902 | 33911 ft | 466 kts | 316° |
| 2026-05-07 12:07 | 34.72655 | -82.95175 | 33902 ft | 463 kts | 315° |
| 2026-05-07 12:07 | 34.78112 | -82.99474 | 33895 ft | 466 kts | 315° |
| 2026-05-07 12:08 | 34.83519 | -83.03732 | 33900 ft | 462 kts | 315° |
| 2026-05-07 12:08 | 34.88910 | -83.07990 | 33901 ft | 461 kts | 315° |
| 2026-05-07 12:09 | 34.94247 | -83.12206 | 33916 ft | 456 kts | 314° |
| 2026-05-07 12:09 | 34.99626 | -83.16474 | 33927 ft | 463 kts | 314° |
| 2026-05-07 12:10 | 35.04972 | -83.20708 | 33936 ft | 456 kts | 314° |
| 2026-05-07 12:10 | 35.10315 | -83.24957 | 33949 ft | 459 kts | 314° |
| 2026-05-07 12:11 | 35.15671 | -83.29218 | 33948 ft | 458 kts | 314° |
| 2026-05-07 12:11 | 35.20988 | -83.33456 | 33951 ft | 456 kts | 314° |
| 2026-05-07 12:12 | 35.26268 | -83.37671 | 33952 ft | 457 kts | 314° |
| 2026-05-07 12:12 | 35.31579 | -83.41915 | 33941 ft | 455 kts | 314° |
| 2026-05-07 12:13 | 35.36858 | -83.46142 | 33935 ft | 452 kts | 314° |
| 2026-05-07 12:13 | 35.42123 | -83.50366 | 33938 ft | 454 kts | 314° |
| 2026-05-07 12:14 | 35.47383 | -83.54590 | 33934 ft | 451 kts | 314° |
| 2026-05-07 12:14 | 35.52678 | -83.58853 | 33937 ft | 452 kts | 314° |
| 2026-05-07 12:15 | 35.57903 | -83.63062 | 33929 ft | 452 kts | 314° |
| 2026-05-07 12:15 | 35.63160 | -83.67303 | 33957 ft | 449 kts | 313° |
| 2026-05-07 12:16 | 35.68380 | -83.71526 | 33961 ft | 448 kts | 313° |
| 2026-05-07 12:16 | 35.73571 | -83.75730 | 33962 ft | 448 kts | 313° |
| 2026-05-07 12:17 | 35.78782 | -83.79955 | 33969 ft | 447 kts | 313° |
| 2026-05-07 12:17 | 35.83958 | -83.84158 | 33975 ft | 443 kts | 313° |
| 2026-05-07 12:18 | 35.89127 | -83.88367 | 33972 ft | 446 kts | 313° |
| 2026-05-07 12:18 | 35.94398 | -83.92445 | 33978 ft | 447 kts | 315° |
| 2026-05-07 12:19 | 35.99733 | -83.96365 | 33977 ft | 449 kts | 315° |
| 2026-05-07 12:19 | 36.05096 | -84.00326 | 33981 ft | 448 kts | 315° |
| 2026-05-07 12:20 | 36.10422 | -84.04274 | 33981 ft | 448 kts | 315° |
| 2026-05-07 12:20 | 36.15760 | -84.08245 | 33971 ft | 446 kts | 315° |
| 2026-05-07 12:21 | 36.21081 | -84.12211 | 33969 ft | 445 kts | 315° |
| 2026-05-07 12:21 | 36.26389 | -84.16177 | 33975 ft | 447 kts | 315° |
| 2026-05-07 12:22 | 36.31703 | -84.20152 | 33976 ft | 447 kts | 314° |
| 2026-05-07 12:22 | 36.37017 | -84.24133 | 33987 ft | 444 kts | 314° |
| 2026-05-07 12:23 | 36.42279 | -84.28085 | 33979 ft | 445 kts | 314° |
| 2026-05-07 12:23 | 36.47574 | -84.32067 | 33983 ft | 446 kts | 314° |
| 2026-05-07 12:24 | 36.52877 | -84.36062 | 33990 ft | 445 kts | 314° |
| 2026-05-07 12:24 | 36.58170 | -84.40056 | 33984 ft | 446 kts | 314° |
| 2026-05-07 12:25 | 36.63486 | -84.44071 | 33993 ft | 444 kts | 314° |
| 2026-05-07 12:25 | 36.68732 | -84.48042 | 33991 ft | 446 kts | 314° |
| 2026-05-07 12:26 | 36.74040 | -84.52067 | 33987 ft | 447 kts | 314° |
| 2026-05-07 12:26 | 36.79321 | -84.56074 | 33989 ft | 444 kts | 314° |
| 2026-05-07 12:27 | 36.84618 | -84.60106 | 33998 ft | 446 kts | 313° |
| 2026-05-07 12:27 | 36.89883 | -84.64117 | 34001 ft | 447 kts | 313° |
| 2026-05-07 12:28 | 36.95194 | -84.68167 | 34036 ft | 444 kts | 313° |
| 2026-05-07 12:28 | 37.00445 | -84.72182 | 34041 ft | 446 kts | 313° |
| 2026-05-07 12:29 | 37.05748 | -84.76244 | 34040 ft | 447 kts | 313° |
| 2026-05-07 12:29 | 37.11024 | -84.80286 | 34030 ft | 442 kts | 312° |
| 2026-05-07 12:30 | 37.16231 | -84.84286 | 34022 ft | 441 kts | 312° |
| 2026-05-07 12:30 | 37.21501 | -84.88342 | 34027 ft | 441 kts | 312° |
| 2026-05-07 12:31 | 37.26730 | -84.92374 | 34027 ft | 442 kts | 312° |
| 2026-05-07 12:31 | 37.31917 | -84.96375 | 34028 ft | 439 kts | 312° |
| 2026-05-07 12:32 | 37.37122 | -85.00398 | 34030 ft | 436 kts | 311° |
| 2026-05-07 12:32 | 37.42302 | -85.04414 | 34033 ft | 438 kts | 312° |
| 2026-05-07 12:33 | 37.50115 | -85.10484 | 34313 ft | 444 kts | 311° |
| 2026-05-07 12:33 | 37.52713 | -85.12498 | 34911 ft | 438 kts | 312° |
| 2026-05-07 12:33 | 37.55296 | -85.14497 | 35658 ft | 429 kts | 311° |
| 2026-05-07 12:34 | 37.57821 | -85.16462 | 36022 ft | 427 kts | 311° |
| 2026-05-07 12:34 | 37.60336 | -85.18428 | 36039 ft | 429 kts | 311° |
| 2026-05-07 12:34 | 37.65418 | -85.22393 | 36040 ft | 423 kts | 312° |
| 2026-05-07 12:35 | 37.70399 | -85.26291 | 36036 ft | 425 kts | 312° |
| 2026-05-07 12:35 | 37.75396 | -85.30205 | 36042 ft | 425 kts | 312° |
| 2026-05-07 12:36 | 37.80377 | -85.34111 | 36045 ft | 425 kts | 311° |
| 2026-05-07 12:36 | 37.85413 | -85.38065 | 36050 ft | 424 kts | 311° |
| 2026-05-07 12:37 | 37.90435 | -85.42018 | 36049 ft | 425 kts | 312° |
| 2026-05-07 12:37 | 37.95391 | -85.45918 | 35920 ft | 420 kts | 311° |
| 2026-05-07 12:38 | 37.97893 | -85.47894 | 36054 ft | 422 kts | 311° |
| 2026-05-07 12:38 | 38.00391 | -85.49868 | 36055 ft | 423 kts | 311° |
| 2026-05-07 12:38 | 38.05378 | -85.53808 | 36055 ft | 421 kts | 311° |
| 2026-05-07 12:39 | 38.10405 | -85.57726 | 36049 ft | 430 kts | 315° |
| 2026-05-07 12:39 | 38.15893 | -85.61025 | 36045 ft | 438 kts | 318° |
| 2026-05-07 12:40 | 38.21455 | -85.64275 | 36049 ft | 441 kts | 319° |
| 2026-05-07 12:40 | 38.26998 | -85.67523 | 36074 ft | 440 kts | 318° |
| 2026-05-07 12:41 | 38.32581 | -85.70805 | 36078 ft | 440 kts | 318° |
| 2026-05-07 12:41 | 38.38137 | -85.74080 | 36074 ft | 442 kts | 318° |
| 2026-05-07 12:42 | 38.43703 | -85.77367 | 36074 ft | 442 kts | 318° |
| 2026-05-07 12:42 | 38.49317 | -85.80691 | 36073 ft | 447 kts | 318° |
| 2026-05-07 12:43 | 38.54935 | -85.84014 | 36069 ft | 442 kts | 319° |
| 2026-05-07 12:43 | 38.60516 | -85.87329 | 36059 ft | 443 kts | 319° |
| 2026-05-07 12:44 | 38.66096 | -85.90651 | 36064 ft | 445 kts | 319° |
| 2026-05-07 12:44 | 38.71741 | -85.94016 | 36061 ft | 448 kts | 319° |
| 2026-05-07 12:45 | 38.77361 | -85.97364 | 36058 ft | 444 kts | 319° |
| 2026-05-07 12:45 | 38.82929 | -86.00695 | 36055 ft | 445 kts | 319° |
| 2026-05-07 12:46 | 38.88571 | -86.04076 | 36064 ft | 449 kts | 319° |
| 2026-05-07 12:46 | 38.94215 | -86.07458 | 36060 ft | 444 kts | 319° |
| 2026-05-07 12:47 | 38.99858 | -86.10854 | 36061 ft | 447 kts | 319° |
| 2026-05-07 12:47 | 39.05452 | -86.14221 | 36058 ft | 447 kts | 319° |
| 2026-05-07 12:48 | 39.11102 | -86.17629 | 36057 ft | 446 kts | 320° |
| 2026-05-07 12:48 | 39.16694 | -86.21008 | 36061 ft | 447 kts | 320° |
| 2026-05-07 12:49 | 39.22346 | -86.24432 | 36049 ft | 449 kts | 320° |
| 2026-05-07 12:49 | 39.28023 | -86.27872 | 36032 ft | 448 kts | 320° |
| 2026-05-07 12:50 | 39.33672 | -86.31306 | 36045 ft | 452 kts | 321° |
| 2026-05-07 12:50 | 39.39390 | -86.34789 | 36043 ft | 455 kts | 321° |
| 2026-05-07 12:51 | 39.45067 | -86.38246 | 36046 ft | 453 kts | 320° |
| 2026-05-07 12:51 | 39.50786 | -86.41739 | 36051 ft | 453 kts | 321° |
| 2026-05-07 12:52 | 39.56473 | -86.45219 | 36035 ft | 453 kts | 321° |
| 2026-05-07 12:52 | 39.62199 | -86.48731 | 36044 ft | 457 kts | 321° |
| 2026-05-07 12:53 | 39.67932 | -86.52250 | 36040 ft | 454 kts | 322° |
| 2026-05-07 12:53 | 39.73637 | -86.55763 | 36039 ft | 457 kts | 322° |
| 2026-05-07 12:54 | 39.79396 | -86.59312 | 36038 ft | 459 kts | 322° |
| 2026-05-07 12:54 | 39.85179 | -86.62885 | 36042 ft | 461 kts | 322° |
| 2026-05-07 12:55 | 39.90931 | -86.66442 | 36065 ft | 458 kts | 322° |
| 2026-05-07 12:55 | 39.96707 | -86.70023 | 36057 ft | 459 kts | 322° |
| 2026-05-07 12:56 | 40.02442 | -86.73585 | 36066 ft | 459 kts | 322° |
| 2026-05-07 12:56 | 40.08196 | -86.77165 | 36065 ft | 460 kts | 322° |
| 2026-05-07 12:57 | 40.13984 | -86.80775 | 36051 ft | 460 kts | 322° |
| 2026-05-07 12:57 | 40.19790 | -86.84403 | 36051 ft | 463 kts | 323° |
| 2026-05-07 12:58 | 40.25565 | -86.88015 | 36052 ft | 461 kts | 323° |
| 2026-05-07 12:58 | 40.31362 | -86.91650 | 36261 ft | 459 kts | 323° |
| 2026-05-07 12:59 | 40.34244 | -86.93462 | 36082 ft | 461 kts | 323° |
| 2026-05-07 12:59 | 40.37087 | -86.95244 | 36057 ft | 455 kts | 323° |
| 2026-05-07 12:59 | 40.42816 | -86.98855 | 36049 ft | 461 kts | 323° |
| 2026-05-07 13:00 | 40.48607 | -87.02507 | 36045 ft | 460 kts | 323° |
| 2026-05-07 13:00 | 40.54380 | -87.06154 | 36049 ft | 460 kts | 323° |
| 2026-05-07 13:01 | 40.60283 | -87.09496 | 36047 ft | 467 kts | 328° |
| 2026-05-07 13:01 | 40.66375 | -87.12569 | 36045 ft | 469 kts | 328° |
| 2026-05-07 13:02 | 40.72424 | -87.15654 | 36045 ft | 467 kts | 328° |
| 2026-05-07 13:02 | 40.78475 | -87.18767 | 36047 ft | 467 kts | 328° |
| 2026-05-07 13:03 | 40.84535 | -87.21905 | 36060 ft | 468 kts | 328° |
| 2026-05-07 13:03 | 40.90581 | -87.25050 | 36059 ft | 469 kts | 328° |
| 2026-05-07 13:04 | 40.96654 | -87.28220 | 36057 ft | 468 kts | 328° |
| 2026-05-07 13:04 | 41.02680 | -87.31372 | 36055 ft | 468 kts | 328° |
| 2026-05-07 13:05 | 41.08742 | -87.34550 | 36052 ft | 467 kts | 328° |
| 2026-05-07 13:05 | 41.14749 | -87.37704 | 36048 ft | 468 kts | 328° |
| 2026-05-07 13:06 | 41.20838 | -87.40911 | 36043 ft | 469 kts | 328° |
| 2026-05-07 13:06 | 41.26856 | -87.44081 | 36037 ft | 468 kts | 329° |
| 2026-05-07 13:07 | 41.32939 | -87.47295 | 36037 ft | 469 kts | 329° |
| 2026-05-07 13:07 | 41.38994 | -87.50500 | 36039 ft | 471 kts | 328° |
| 2026-05-07 13:08 | 41.45083 | -87.53729 | 36034 ft | 470 kts | 329° |
| 2026-05-07 13:08 | 41.51097 | -87.56924 | 36036 ft | 471 kts | 329° |
| 2026-05-07 13:09 | 41.57171 | -87.60157 | 36033 ft | 468 kts | 329° |
| 2026-05-07 13:09 | 41.63255 | -87.63405 | 36027 ft | 471 kts | 329° |
| 2026-05-07 13:10 | 41.69309 | -87.66641 | 36039 ft | 472 kts | 328° |
| 2026-05-07 13:10 | 41.75395 | -87.69902 | 36042 ft | 473 kts | 328° |
| 2026-05-07 13:11 | 41.81484 | -87.73168 | 36040 ft | 469 kts | 329° |
| 2026-05-07 13:11 | 41.87555 | -87.76437 | 36037 ft | 474 kts | 329° |
| 2026-05-07 13:12 | 41.93678 | -87.79736 | 36038 ft | 473 kts | 329° |
| 2026-05-07 13:12 | 41.99755 | -87.83019 | 36029 ft | 473 kts | 329° |
| 2026-05-07 13:13 | 42.05873 | -87.86331 | 36028 ft | 474 kts | 329° |
| 2026-05-07 13:13 | 42.11971 | -87.89638 | 36029 ft | 475 kts | 329° |
| 2026-05-07 13:14 | 42.18086 | -87.92961 | 36030 ft | 474 kts | 329° |
| 2026-05-07 13:14 | 42.24320 | -87.95990 | 36029 ft | 481 kts | 336° |
| 2026-05-07 13:15 | 42.30808 | -87.98370 | 36025 ft | 486 kts | 336° |
| 2026-05-07 13:15 | 42.37321 | -88.00751 | 36023 ft | 485 kts | 336° |
| 2026-05-07 13:16 | 42.43822 | -88.03141 | 36016 ft | 486 kts | 337° |
| 2026-05-07 13:16 | 42.50381 | -88.05557 | 36028 ft | 485 kts | 336° |
| 2026-05-07 13:17 | 42.56844 | -88.07945 | 36021 ft | 484 kts | 337° |
| 2026-05-07 13:17 | 42.63365 | -88.10362 | 36015 ft | 486 kts | 337° |
| 2026-05-07 13:18 | 42.69878 | -88.12780 | 36019 ft | 486 kts | 337° |
| 2026-05-07 13:18 | 42.76367 | -88.15195 | 36027 ft | 485 kts | 337° |
| 2026-05-07 13:19 | 42.82894 | -88.17631 | 36016 ft | 487 kts | 337° |
| 2026-05-07 13:19 | 42.89388 | -88.20058 | 36009 ft | 486 kts | 338° |
| 2026-05-07 13:20 | 42.95918 | -88.22504 | 36010 ft | 486 kts | 338° |
| 2026-05-07 13:20 | 43.02407 | -88.24942 | 36010 ft | 487 kts | 338° |
| 2026-05-07 13:21 | 43.08944 | -88.27470 | 36009 ft | 483 kts | 334° |
| 2026-05-07 13:21 | 43.14803 | -88.31567 | 36005 ft | 468 kts | 320° |
| 2026-05-07 13:22 | 43.20089 | -88.36706 | 35998 ft | 468 kts | 319° |
| 2026-05-07 13:22 | 43.25387 | -88.41914 | 35992 ft | 468 kts | 319° |
| 2026-05-07 13:23 | 43.30665 | -88.47118 | 35986 ft | 469 kts | 319° |
| 2026-05-07 13:23 | 43.35742 | -88.52136 | 35994 ft | 470 kts | 319° |
| 2026-05-07 13:24 | 43.41021 | -88.57365 | 35998 ft | 469 kts | 319° |
| 2026-05-07 13:24 | 43.46335 | -88.62643 | 35997 ft | 468 kts | 319° |
| 2026-05-07 13:25 | 43.51588 | -88.67872 | 36006 ft | 468 kts | 319° |
| 2026-05-07 13:25 | 43.56869 | -88.73141 | 36004 ft | 468 kts | 319° |
| 2026-05-07 13:26 | 43.62125 | -88.78396 | 35993 ft | 469 kts | 319° |
| 2026-05-07 13:26 | 43.67411 | -88.83693 | 35990 ft | 469 kts | 319° |
| 2026-05-07 13:27 | 43.72658 | -88.88962 | 35988 ft | 469 kts | 319° |
| 2026-05-07 13:27 | 43.77933 | -88.94272 | 35983 ft | 468 kts | 319° |
| 2026-05-07 13:28 | 43.83168 | -88.99553 | 35981 ft | 469 kts | 319° |
| 2026-05-07 13:28 | 43.88429 | -89.04871 | 35980 ft | 469 kts | 320° |
| 2026-05-07 13:29 | 43.93695 | -89.10207 | 35980 ft | 470 kts | 320° |
| 2026-05-07 13:29 | 43.98971 | -89.15565 | 35980 ft | 470 kts | 320° |
| 2026-05-07 13:30 | 44.04255 | -89.20944 | 35979 ft | 470 kts | 320° |
| 2026-05-07 13:30 | 44.09493 | -89.26286 | 35978 ft | 471 kts | 320° |
| 2026-05-07 13:31 | 44.14778 | -89.31690 | 35975 ft | 471 kts | 320° |
| 2026-05-07 13:31 | 44.20021 | -89.37063 | 35972 ft | 470 kts | 320° |
| 2026-05-07 13:32 | 44.25305 | -89.42490 | 35970 ft | 471 kts | 320° |
| 2026-05-07 13:32 | 44.30558 | -89.47898 | 35970 ft | 470 kts | 320° |
| 2026-05-07 13:33 | 44.35808 | -89.53316 | 35969 ft | 470 kts | 320° |
| 2026-05-07 13:33 | 44.41056 | -89.58745 | 35972 ft | 470 kts | 320° |
| 2026-05-07 13:34 | 44.48900 | -89.66881 | 35986 ft | 471 kts | 320° |
| 2026-05-07 13:35 | 44.54170 | -89.72363 | 35987 ft | 471 kts | 320° |
| 2026-05-07 13:35 | 44.59387 | -89.77803 | 35983 ft | 471 kts | 320° |
| 2026-05-07 13:36 | 44.64645 | -89.83297 | 35976 ft | 471 kts | 320° |
| 2026-05-07 13:36 | 44.69877 | -89.88777 | 35973 ft | 471 kts | 320° |
| 2026-05-07 13:37 | 44.75103 | -89.94264 | 35975 ft | 470 kts | 320° |
| 2026-05-07 13:37 | 44.80368 | -89.99805 | 35971 ft | 471 kts | 320° |
| 2026-05-07 13:38 | 44.85596 | -90.05318 | 35967 ft | 471 kts | 320° |
| 2026-05-07 13:38 | 44.90822 | -90.10844 | 35955 ft | 472 kts | 320° |
| 2026-05-07 13:39 | 44.96081 | -90.16417 | 35944 ft | 473 kts | 320° |
| 2026-05-07 13:39 | 45.01335 | -90.21997 | 35947 ft | 472 kts | 320° |
| 2026-05-07 13:40 | 45.06544 | -90.27543 | 35952 ft | 471 kts | 320° |
| 2026-05-07 13:40 | 45.11772 | -90.33122 | 35958 ft | 472 kts | 320° |
| 2026-05-07 13:41 | 45.17001 | -90.38715 | 35950 ft | 472 kts | 320° |
| 2026-05-07 13:41 | 45.22225 | -90.44317 | 35948 ft | 471 kts | 321° |
| 2026-05-07 13:42 | 45.27434 | -90.49915 | 35944 ft | 472 kts | 321° |
| 2026-05-07 13:42 | 45.32657 | -90.55542 | 35931 ft | 472 kts | 321° |
| 2026-05-07 13:43 | 45.37883 | -90.61185 | 35928 ft | 472 kts | 321° |
| 2026-05-07 13:43 | 45.43115 | -90.66848 | 35935 ft | 472 kts | 320° |
| 2026-05-07 13:44 | 45.48309 | -90.72484 | 35946 ft | 472 kts | 320° |
| 2026-05-07 13:44 | 45.53511 | -90.78141 | 35948 ft | 472 kts | 320° |
| 2026-05-07 13:45 | 45.58751 | -90.83854 | 35953 ft | 472 kts | 320° |
| 2026-05-07 13:45 | 45.63953 | -90.89539 | 35950 ft | 472 kts | 320° |
| 2026-05-07 13:46 | 45.69150 | -90.95232 | 35947 ft | 471 kts | 320° |
| 2026-05-07 13:46 | 45.74316 | -91.00905 | 35941 ft | 472 kts | 321° |
| 2026-05-07 13:47 | 45.79541 | -91.06657 | 35938 ft | 472 kts | 321° |
| 2026-05-07 13:47 | 45.84738 | -91.12390 | 35936 ft | 472 kts | 321° |
| 2026-05-07 13:48 | 45.89922 | -91.18124 | 35938 ft | 473 kts | 321° |
| 2026-05-07 13:48 | 45.95089 | -91.23852 | 35944 ft | 472 kts | 321° |
| 2026-05-07 13:49 | 46.00277 | -91.29619 | 35948 ft | 471 kts | 321° |
| 2026-05-07 13:49 | 46.05428 | -91.35358 | 35952 ft | 471 kts | 321° |
| 2026-05-07 13:50 | 46.10606 | -91.41140 | 35949 ft | 471 kts | 321° |
| 2026-05-07 13:50 | 46.15786 | -91.46940 | 35946 ft | 471 kts | 321° |
| 2026-05-07 13:51 | 46.20934 | -91.52718 | 35941 ft | 471 kts | 321° |
| 2026-05-07 13:51 | 46.26100 | -91.58530 | 35940 ft | 471 kts | 321° |
| 2026-05-07 13:52 | 46.31227 | -91.64313 | 35937 ft | 471 kts | 321° |
| 2026-05-07 13:52 | 46.36399 | -91.70160 | 35953 ft | 470 kts | 320° |
| 2026-05-07 13:53 | 46.41544 | -91.75992 | 35950 ft | 470 kts | 320° |
| 2026-05-07 13:53 | 46.46683 | -91.81830 | 35944 ft | 470 kts | 320° |
| 2026-05-07 13:54 | 46.51813 | -91.87673 | 35938 ft | 470 kts | 321° |
| 2026-05-07 13:54 | 46.56929 | -91.93514 | 35947 ft | 470 kts | 321° |
| 2026-05-07 13:55 | 46.62060 | -91.99387 | 35948 ft | 470 kts | 321° |
| 2026-05-07 13:55 | 46.67200 | -92.05285 | 35950 ft | 470 kts | 321° |
| 2026-05-07 13:56 | 46.72295 | -92.11146 | 35949 ft | 471 kts | 321° |
| 2026-05-07 13:56 | 46.77438 | -92.17077 | 35944 ft | 470 kts | 321° |
| 2026-05-07 13:57 | 46.82288 | -92.23364 | 35938 ft | 468 kts | 315° |
| 2026-05-07 13:57 | 46.86894 | -92.30057 | 35929 ft | 469 kts | 315° |
| 2026-05-07 13:58 | 46.91513 | -92.36805 | 35921 ft | 469 kts | 315° |
| 2026-05-07 13:58 | 46.96101 | -92.43532 | 35914 ft | 469 kts | 315° |
| 2026-05-07 13:59 | 47.00676 | -92.50258 | 35909 ft | 469 kts | 315° |
| 2026-05-07 13:59 | 47.05260 | -92.57018 | 35906 ft | 469 kts | 315° |
| 2026-05-07 14:00 | 47.09849 | -92.63803 | 35904 ft | 468 kts | 315° |
| 2026-05-07 14:00 | 47.14405 | -92.70559 | 35911 ft | 468 kts | 314° |
| 2026-05-07 14:01 | 47.18985 | -92.77366 | 35905 ft | 468 kts | 314° |
| 2026-05-07 14:01 | 47.23555 | -92.84177 | 35906 ft | 468 kts | 314° |
| 2026-05-07 14:02 | 47.28086 | -92.90949 | 35906 ft | 467 kts | 314° |
| 2026-05-07 14:02 | 47.32652 | -92.97789 | 35909 ft | 467 kts | 314° |
| 2026-05-07 14:03 | 47.37161 | -93.04562 | 35904 ft | 466 kts | 314° |
| 2026-05-07 14:03 | 47.41713 | -93.11417 | 35899 ft | 467 kts | 314° |
| 2026-05-07 14:04 | 47.46244 | -93.18259 | 35899 ft | 467 kts | 314° |
| 2026-05-07 14:04 | 47.50020 | -93.23974 | 35895 ft | 467 kts | 314° |